Dirección General De Aeronáutica Civil

Dirección Meteorológica de Chile - Servicios Climáticos

Informe General de Control de Calidad de la Estación

Listado de niveles de control de calidad para algunos parámetros
Estación Codegua (340125)
Fecha de Revisión de los datos :

Elementos

Registros Niveles de Control Total
Nivel 0 Nivel 1 Nivel 2 Nivel 3 Errores Porcentaje
01 Temperatura del Aire Seco 119.364 0 . 953 0.80 % 0 . 0 . 953 0.80 %
02 Temperatura de Rocío 118.681 12 0.01 % 0 . 0 . 0 . 12 0.01 %
03 Humedad Relativa del Aire 118.862 0 . 0 . 0 . 0 . 0 0.00 %
04 Temperatura Máxima PM 1.108 0 . 0 . 0 . 0 . 0 0.00 %
05 Temperatura Mínima AM 1.073 0 . 0 . 0 . 0 . 0 0.00 %
06 Agua Caida, Acumulada 6 Horas 21.229 0 . 0 . 0 . 0 . 0 0.00 %
07 Presión Atm. a Nivel de Estación (QFE) 118.909 0 . 0 . 0 . 0 . 0 0.00 %
08 Presión Atm. a Nivel Medio del Mar (QFF) 26.177 0 . 0 . 0 . 0 . 0 0.00 %
09 Presión Atm. Estándar OACI (QNH) 26.178 0 . 0 . 0 . 0 . 0 0.00 %

Totales

551.581 . 0.0022 % . 0.1728 % . 0.0000 % . 0.0000 % 965 0.1750 %

Detalle de Errores Encontrados

Nivel Fecha del Dato Descripción Información Error Fecha Ingreso
0 2016-06-17 12:00:00 Td (Temperatura Del Punto de Rocio) debe ser numérico, entre -50.0 y 50.0 -51.6
0 2016-06-18 05:00:00 Td (Temperatura Del Punto de Rocio) debe ser numérico, entre -50.0 y 50.0 -52.7
0 2016-06-19 12:00:00 Td (Temperatura Del Punto de Rocio) debe ser numérico, entre -50.0 y 50.0 -52.7
0 2016-06-22 06:00:00 Td (Temperatura Del Punto de Rocio) debe ser numérico, entre -50.0 y 50.0 -52.7
0 2016-06-22 07:00:00 Td (Temperatura Del Punto de Rocio) debe ser numérico, entre -50.0 y 50.0 -54.1
0 2016-06-22 12:00:00 Td (Temperatura Del Punto de Rocio) debe ser numérico, entre -50.0 y 50.0 -52.7
0 2016-06-23 10:00:00 Td (Temperatura Del Punto de Rocio) debe ser numérico, entre -50.0 y 50.0 -54.1
0 2016-06-26 07:00:00 Td (Temperatura Del Punto de Rocio) debe ser numérico, entre -50.0 y 50.0 -51.6
0 2016-06-26 11:00:00 Td (Temperatura Del Punto de Rocio) debe ser numérico, entre -50.0 y 50.0 -51.6
0 2016-07-05 05:00:00 Td (Temperatura Del Punto de Rocio) debe ser numérico, entre -50.0 y 50.0 -50.6
0 2016-07-05 06:00:00 Td (Temperatura Del Punto de Rocio) debe ser numérico, entre -50.0 y 50.0 -51.6
0 2016-07-05 12:00:00 Td (Temperatura Del Punto de Rocio) debe ser numérico, entre -50.0 y 50.0 -51.6
Errores del Nivel 12
Nivel Fecha del Dato Descripción Información Error Fecha Ingreso
1 2014-09-02 08:00:00 Ts debe ser mayor o igual a Td Ts=6.7 - Td=6.8 2023-11-18 15:17:00
1 2014-09-02 12:00:00 Ts debe ser mayor o igual a Td Ts=6.9 - Td=7.0 2023-11-18 15:17:00
1 2015-08-07 13:00:00 Ts debe ser mayor o igual a Td Ts=8.1 - Td=8.2 2023-11-18 15:22:00
1 2016-04-16 10:00:00 Ts debe ser mayor o igual a Td Ts=13.6 - Td=13.7 2023-11-18 15:26:00
1 2016-04-16 13:00:00 Ts debe ser mayor o igual a Td Ts=14.5 - Td=14.6 2023-11-18 15:26:00
1 2016-04-18 05:00:00 Ts debe ser mayor o igual a Td Ts=10.6 - Td=10.7 2023-11-18 15:26:00
1 2016-04-18 08:00:00 Ts debe ser mayor o igual a Td Ts=10.8 - Td=10.9 2023-11-18 15:26:00
1 2016-05-21 19:00:00 Ts debe ser mayor o igual a Td Ts=0.4 - Td=48.2 2023-11-18 15:26:00
1 2016-05-22 17:00:00 Ts debe ser mayor o igual a Td Ts=0.3 - Td=44.2 2023-11-18 15:26:00
1 2016-05-22 18:00:00 Ts debe ser mayor o igual a Td Ts=0.3 - Td=36.1 2023-11-18 15:26:00
1 2016-05-22 19:00:00 Ts debe ser mayor o igual a Td Ts=0.3 - Td=33.2 2023-11-18 15:26:00
1 2016-05-22 20:00:00 Ts debe ser mayor o igual a Td Ts=0.3 - Td=31.4 2023-11-18 15:26:00
1 2016-05-23 17:00:00 Ts debe ser mayor o igual a Td Ts=0.3 - Td=43.4 2023-11-18 15:26:00
1 2016-05-23 18:00:00 Ts debe ser mayor o igual a Td Ts=0.3 - Td=36.4 2023-11-18 15:26:00
1 2016-05-23 19:00:00 Ts debe ser mayor o igual a Td Ts=0.3 - Td=31.8 2023-11-18 15:26:00
1 2016-05-23 20:00:00 Ts debe ser mayor o igual a Td Ts=0.3 - Td=33.4 2023-11-18 15:26:00
1 2016-05-23 21:00:00 Ts debe ser mayor o igual a Td Ts=0.3 - Td=44.0 2023-11-18 15:26:00
1 2016-05-29 11:00:00 Ts debe ser mayor o igual a Td Ts=10.5 - Td=10.6 2023-11-18 15:26:00
1 2016-05-30 07:00:00 Ts debe ser mayor o igual a Td Ts=8.8 - Td=8.9 2023-11-18 15:26:00
1 2016-05-31 06:00:00 Ts debe ser mayor o igual a Td Ts=7.0 - Td=7.1 2023-11-18 15:26:00
1 2016-05-31 12:00:00 Ts debe ser mayor o igual a Td Ts=8.4 - Td=8.5 2023-11-18 15:26:00
1 2016-05-31 13:00:00 Ts debe ser mayor o igual a Td Ts=9.3 - Td=9.4 2023-11-18 15:26:00
1 2016-06-03 13:00:00 Ts debe ser mayor o igual a Td Ts=8.2 - Td=8.3 2023-11-18 15:26:00
1 2016-06-14 12:00:00 Ts debe ser mayor o igual a Td Ts=7.5 - Td=7.6 2023-11-18 15:27:00
1 2016-06-14 13:00:00 Ts debe ser mayor o igual a Td Ts=8.3 - Td=8.4 2023-11-18 15:27:00
1 2016-06-15 16:00:00 Ts debe ser mayor o igual a Td Ts=7.8 - Td=7.9 2023-11-18 15:27:00
1 2016-06-17 17:00:00 Ts debe ser mayor o igual a Td Ts=0.3 - Td=38.9 2023-11-18 15:27:00
1 2016-06-17 18:00:00 Ts debe ser mayor o igual a Td Ts=0.3 - Td=34.3 2023-11-18 15:27:00
1 2016-06-17 19:00:00 Ts debe ser mayor o igual a Td Ts=0.3 - Td=32.6 2023-11-18 15:27:00
1 2016-06-17 20:00:00 Ts debe ser mayor o igual a Td Ts=0.3 - Td=33.2 2023-11-18 15:27:00
1 2016-06-18 16:00:00 Ts debe ser mayor o igual a Td Ts=0.3 - Td=50.0 2023-11-18 15:27:00
1 2016-06-18 17:00:00 Ts debe ser mayor o igual a Td Ts=0.3 - Td=38.7 2023-11-18 15:27:00
1 2016-06-18 18:00:00 Ts debe ser mayor o igual a Td Ts=0.3 - Td=36.5 2023-11-18 15:27:00
1 2016-06-18 19:00:00 Ts debe ser mayor o igual a Td Ts=0.3 - Td=36.0 2023-11-18 15:27:00
1 2016-06-18 20:00:00 Ts debe ser mayor o igual a Td Ts=0.3 - Td=36.3 2023-11-18 15:27:00
1 2016-06-18 21:00:00 Ts debe ser mayor o igual a Td Ts=0.3 - Td=46.7 2023-11-18 15:27:00
1 2016-06-21 18:00:00 Ts debe ser mayor o igual a Td Ts=0.3 - Td=45.4 2023-11-18 15:27:00
1 2016-06-21 19:00:00 Ts debe ser mayor o igual a Td Ts=0.3 - Td=40.4 2023-11-18 15:27:00
1 2016-06-21 20:00:00 Ts debe ser mayor o igual a Td Ts=0.3 - Td=37.8 2023-11-18 15:27:00
1 2016-06-22 18:00:00 Ts debe ser mayor o igual a Td Ts=0.3 - Td=35.5 2023-11-18 15:27:00
1 2016-06-22 19:00:00 Ts debe ser mayor o igual a Td Ts=0.3 - Td=49.7 2023-11-18 15:27:00
1 2016-06-27 16:00:00 Ts debe ser mayor o igual a Td Ts=0.3 - Td=47.6 2023-11-18 15:27:00
1 2016-06-27 17:00:00 Ts debe ser mayor o igual a Td Ts=0.3 - Td=41.8 2023-11-18 15:27:00
1 2016-06-27 18:00:00 Ts debe ser mayor o igual a Td Ts=0.3 - Td=35.3 2023-11-18 15:27:00
1 2016-06-27 19:00:00 Ts debe ser mayor o igual a Td Ts=0.3 - Td=34.5 2023-11-18 15:27:00
1 2016-06-27 20:00:00 Ts debe ser mayor o igual a Td Ts=0.3 - Td=34.8 2023-11-18 15:27:00
1 2016-06-27 21:00:00 Ts debe ser mayor o igual a Td Ts=0.3 - Td=41.4 2023-11-18 15:27:00
1 2016-06-28 16:00:00 Ts debe ser mayor o igual a Td Ts=0.3 - Td=38.5 2023-11-18 15:27:00
1 2016-06-28 17:00:00 Ts debe ser mayor o igual a Td Ts=0.3 - Td=32.5 2023-11-18 15:27:00
1 2016-06-28 18:00:00 Ts debe ser mayor o igual a Td Ts=0.3 - Td=30.7 2023-11-18 15:27:00
1 2016-06-28 19:00:00 Ts debe ser mayor o igual a Td Ts=0.3 - Td=26.6 2023-11-18 15:27:00
1 2016-06-28 20:00:00 Ts debe ser mayor o igual a Td Ts=0.3 - Td=27.0 2023-11-18 15:27:00
1 2016-06-28 21:00:00 Ts debe ser mayor o igual a Td Ts=0.3 - Td=37.9 2023-11-18 15:27:00
1 2016-07-01 17:00:00 Ts debe ser mayor o igual a Td Ts=0.3 - Td=46.8 2023-11-18 15:27:00
1 2016-07-01 18:00:00 Ts debe ser mayor o igual a Td Ts=0.3 - Td=49.3 2023-11-18 15:27:00
1 2016-07-01 20:00:00 Ts debe ser mayor o igual a Td Ts=0.3 - Td=43.9 2023-11-18 15:27:00
1 2016-07-04 18:00:00 Ts debe ser mayor o igual a Td Ts=0.3 - Td=46.7 2023-11-18 15:27:00
1 2016-07-04 19:00:00 Ts debe ser mayor o igual a Td Ts=0.3 - Td=43.6 2023-11-18 15:27:00
1 2016-07-04 20:00:00 Ts debe ser mayor o igual a Td Ts=0.3 - Td=45.1 2023-11-18 15:27:00
1 2016-07-05 18:00:00 Ts debe ser mayor o igual a Td Ts=0.3 - Td=48.9 2023-11-18 15:27:00
1 2016-07-05 19:00:00 Ts debe ser mayor o igual a Td Ts=0.3 - Td=46.8 2023-11-18 15:27:00
1 2016-07-05 20:00:00 Ts debe ser mayor o igual a Td Ts=0.3 - Td=48.4 2023-11-18 15:27:00
1 2016-07-06 18:00:00 Ts debe ser mayor o igual a Td Ts=0.3 - Td=38.4 2023-11-18 15:27:00
1 2016-07-06 19:00:00 Ts debe ser mayor o igual a Td Ts=0.3 - Td=30.2 2023-11-18 15:27:00
1 2016-07-06 20:00:00 Ts debe ser mayor o igual a Td Ts=0.3 - Td=30.9 2023-11-18 15:27:00
1 2016-07-06 21:00:00 Ts debe ser mayor o igual a Td Ts=0.3 - Td=33.8 2023-11-18 15:27:00
1 2016-08-23 15:00:00 Ts debe ser mayor o igual a Td Ts=8.3 - Td=8.4 2023-11-18 15:28:00
1 2016-11-10 14:00:00 Ts debe ser mayor o igual a Td Ts=0.3 - Td=42.5 2023-11-18 15:28:00
1 2016-11-10 15:00:00 Ts debe ser mayor o igual a Td Ts=0.3 - Td=37.6 2023-11-18 15:28:00
1 2016-11-10 16:00:00 Ts debe ser mayor o igual a Td Ts=0.3 - Td=32.2 2023-11-18 15:28:00
1 2016-11-10 17:00:00 Ts debe ser mayor o igual a Td Ts=0.3 - Td=30.5 2023-11-18 15:28:00
1 2016-11-10 18:00:00 Ts debe ser mayor o igual a Td Ts=0.3 - Td=30.0 2023-11-18 15:29:00
1 2016-11-10 19:00:00 Ts debe ser mayor o igual a Td Ts=0.3 - Td=26.4 2023-11-18 15:29:00
1 2016-11-10 20:00:00 Ts debe ser mayor o igual a Td Ts=0.3 - Td=28.4 2023-11-18 15:29:00
1 2016-11-10 21:00:00 Ts debe ser mayor o igual a Td Ts=0.3 - Td=31.4 2023-11-18 15:29:00
1 2016-11-10 22:00:00 Ts debe ser mayor o igual a Td Ts=0.3 - Td=31.2 2023-11-18 15:29:00
1 2016-11-10 23:00:00 Ts debe ser mayor o igual a Td Ts=0.3 - Td=33.4 2023-11-18 15:29:00
1 2016-11-11 13:00:00 Ts debe ser mayor o igual a Td Ts=0.3 - Td=49.1 2023-11-18 15:29:00
1 2016-11-11 14:00:00 Ts debe ser mayor o igual a Td Ts=0.3 - Td=43.0 2023-11-18 15:29:00
1 2016-11-11 15:00:00 Ts debe ser mayor o igual a Td Ts=0.3 - Td=36.2 2023-11-18 15:29:00
1 2016-11-11 16:00:00 Ts debe ser mayor o igual a Td Ts=0.3 - Td=29.6 2023-11-18 15:29:00
1 2016-11-11 17:00:00 Ts debe ser mayor o igual a Td Ts=0.3 - Td=25.2 2023-11-18 15:29:00
1 2016-11-11 18:00:00 Ts debe ser mayor o igual a Td Ts=0.3 - Td=23.3 2023-11-18 15:29:00
1 2016-11-11 19:00:00 Ts debe ser mayor o igual a Td Ts=0.3 - Td=23.9 2023-11-18 15:29:00
1 2016-11-11 20:00:00 Ts debe ser mayor o igual a Td Ts=0.3 - Td=24.8 2023-11-18 15:29:00
1 2016-11-11 21:00:00 Ts debe ser mayor o igual a Td Ts=0.3 - Td=27.2 2023-11-18 15:29:00
1 2016-11-11 22:00:00 Ts debe ser mayor o igual a Td Ts=0.3 - Td=29.3 2023-11-18 15:29:00
1 2016-11-11 23:00:00 Ts debe ser mayor o igual a Td Ts=0.3 - Td=35.6 2023-11-18 15:29:00
1 2016-11-12 00:00:00 Ts debe ser mayor o igual a Td Ts=0.3 - Td=48.6 2023-11-18 15:29:00
1 2016-11-12 13:00:00 Ts debe ser mayor o igual a Td Ts=0.3 - Td=47.2 2023-11-18 15:29:00
1 2016-11-12 14:00:00 Ts debe ser mayor o igual a Td Ts=0.3 - Td=36.5 2023-11-18 15:29:00
1 2016-11-12 15:00:00 Ts debe ser mayor o igual a Td Ts=0.3 - Td=34.9 2023-11-18 15:29:00
1 2016-11-12 16:00:00 Ts debe ser mayor o igual a Td Ts=0.3 - Td=31.3 2023-11-18 15:29:00
1 2016-11-12 17:00:00 Ts debe ser mayor o igual a Td Ts=0.3 - Td=31.5 2023-11-18 15:29:00
1 2016-11-12 18:00:00 Ts debe ser mayor o igual a Td Ts=0.3 - Td=29.9 2023-11-18 15:29:00
1 2016-11-12 19:00:00 Ts debe ser mayor o igual a Td Ts=0.3 - Td=33.6 2023-11-18 15:29:00
1 2016-11-12 20:00:00 Ts debe ser mayor o igual a Td Ts=0.3 - Td=34.9 2023-11-18 15:29:00
1 2016-12-10 07:00:00 Ts debe ser mayor o igual a Td Ts=10.4 - Td=10.5 2023-11-18 15:29:00
1 2017-05-17 07:00:00 Ts debe ser mayor o igual a Td Ts=8.3 - Td=8.4 2023-11-18 15:31:00
1 2017-05-17 08:00:00 Ts debe ser mayor o igual a Td Ts=8.3 - Td=8.4 2023-11-18 15:31:00
1 2017-05-17 10:00:00 Ts debe ser mayor o igual a Td Ts=7.5 - Td=7.6 2023-11-18 15:31:00
1 2017-05-17 11:00:00 Ts debe ser mayor o igual a Td Ts=7.8 - Td=7.9 2023-11-18 15:31:00
1 2017-05-22 14:00:00 Ts debe ser mayor o igual a Td Ts=6.9 - Td=7.0 2023-11-18 15:32:00
1 2017-05-23 09:00:00 Ts debe ser mayor o igual a Td Ts=5.6 - Td=5.7 2023-11-18 15:32:00
1 2017-05-23 13:00:00 Ts debe ser mayor o igual a Td Ts=5.7 - Td=5.8 2023-11-18 15:32:00
1 2017-05-25 03:00:00 Ts debe ser mayor o igual a Td Ts=8.4 - Td=8.5 2023-11-18 15:32:00
1 2017-06-13 13:00:00 Ts debe ser mayor o igual a Td Ts=4.8 - Td=4.9 2023-11-18 15:32:00
1 2017-06-23 13:00:00 Ts debe ser mayor o igual a Td Ts=8.7 - Td=8.8 2023-11-18 15:32:00
1 2017-06-26 10:00:00 Ts debe ser mayor o igual a Td Ts=8.8 - Td=8.9 2023-11-18 15:32:00
1 2017-07-03 14:00:00 Ts debe ser mayor o igual a Td Ts=7.5 - Td=7.6 2023-11-18 15:32:00
1 2017-07-10 04:00:00 Ts debe ser mayor o igual a Td Ts=7.5 - Td=7.6 2023-11-18 15:32:00
1 2017-07-22 07:00:00 Ts debe ser mayor o igual a Td Ts=7.5 - Td=7.6 2023-11-18 15:32:00
1 2017-07-22 09:00:00 Ts debe ser mayor o igual a Td Ts=8.1 - Td=8.2 2023-11-18 15:32:00
1 2017-08-06 14:00:00 Ts debe ser mayor o igual a Td Ts=5.7 - Td=5.8 2023-11-18 15:33:00
1 2017-09-19 12:00:00 Ts debe ser mayor o igual a Td Ts=9.4 - Td=9.5 2023-11-18 15:33:00
1 2017-09-25 05:00:00 Ts debe ser mayor o igual a Td Ts=0.0 - Td=5.1 2023-11-18 15:33:00
1 2017-10-04 05:00:00 Ts debe ser mayor o igual a Td Ts=0.0 - Td=9.3 2023-11-18 15:33:00
1 2018-05-13 06:00:00 Ts debe ser mayor o igual a Td Ts=8.4 - Td=8.9 2023-11-18 15:37:00
1 2018-05-14 13:00:00 Ts debe ser mayor o igual a Td Ts=5.7 - Td=9.8 2023-11-18 15:37:00
1 2018-05-15 08:00:00 Ts debe ser mayor o igual a Td Ts=7.3 - Td=7.4 2023-11-18 15:37:00
1 2018-05-15 11:00:00 Ts debe ser mayor o igual a Td Ts=8.3 - Td=8.4 2023-11-18 15:37:00
1 2018-05-15 12:00:00 Ts debe ser mayor o igual a Td Ts=8.7 - Td=8.8 2023-11-18 15:37:00
1 2018-05-15 13:00:00 Ts debe ser mayor o igual a Td Ts=9.1 - Td=9.6 2023-11-18 15:37:00
1 2018-05-17 12:00:00 Ts debe ser mayor o igual a Td Ts=1.8 - Td=3.0 2023-11-18 15:37:00
1 2018-05-17 13:00:00 Ts debe ser mayor o igual a Td Ts=3.5 - Td=6.6 2023-11-18 15:37:00
1 2018-05-18 13:00:00 Ts debe ser mayor o igual a Td Ts=1.5 - Td=7.2 2023-11-18 15:37:00
1 2018-05-18 14:00:00 Ts debe ser mayor o igual a Td Ts=7.7 - Td=8.8 2023-11-18 15:37:00
1 2018-05-19 12:00:00 Ts debe ser mayor o igual a Td Ts=-1.2 - Td=0.6 2023-11-18 15:37:00
1 2018-05-19 13:00:00 Ts debe ser mayor o igual a Td Ts=1.4 - Td=3.9 2023-11-18 15:37:00
1 2018-05-20 13:00:00 Ts debe ser mayor o igual a Td Ts=-0.3 - Td=0.7 2023-11-18 15:37:00
1 2018-05-21 10:00:00 Ts debe ser mayor o igual a Td Ts=1.2 - Td=4.5 2023-11-18 15:37:00
1 2018-05-21 11:00:00 Ts debe ser mayor o igual a Td Ts=5.0 - Td=6.0 2023-11-18 15:37:00
1 2018-05-21 13:00:00 Ts debe ser mayor o igual a Td Ts=6.2 - Td=6.8 2023-11-18 15:37:00
1 2018-05-21 14:00:00 Ts debe ser mayor o igual a Td Ts=6.9 - Td=8.5 2023-11-18 15:37:00
1 2018-05-21 15:00:00 Ts debe ser mayor o igual a Td Ts=8.7 - Td=9.0 2023-11-18 15:37:00
1 2018-05-22 12:00:00 Ts debe ser mayor o igual a Td Ts=-0.8 - Td=-0.3 2023-11-18 15:37:00
1 2018-05-22 13:00:00 Ts debe ser mayor o igual a Td Ts=-0.1 - Td=1.9 2023-11-18 15:37:00
1 2018-05-22 14:00:00 Ts debe ser mayor o igual a Td Ts=2.1 - Td=6.8 2023-11-18 15:37:00
1 2018-05-23 13:00:00 Ts debe ser mayor o igual a Td Ts=-1.1 - Td=1.8 2023-11-18 15:37:00
1 2018-05-26 13:00:00 Ts debe ser mayor o igual a Td Ts=0.6 - Td=2.9 2023-11-18 15:37:00
1 2018-05-26 14:00:00 Ts debe ser mayor o igual a Td Ts=3.5 - Td=4.1 2023-11-18 15:37:00
1 2018-05-26 15:00:00 Ts debe ser mayor o igual a Td Ts=4.8 - Td=5.5 2023-11-18 15:37:00
1 2018-05-30 09:00:00 Ts debe ser mayor o igual a Td Ts=8.2 - Td=8.4 2023-11-18 15:37:00
1 2018-05-30 13:00:00 Ts debe ser mayor o igual a Td Ts=8.2 - Td=8.4 2023-11-18 15:37:00
1 2018-05-30 15:00:00 Ts debe ser mayor o igual a Td Ts=8.4 - Td=9.0 2023-11-18 15:37:00
1 2018-05-30 16:00:00 Ts debe ser mayor o igual a Td Ts=8.9 - Td=9.3 2023-11-18 15:37:00
1 2018-05-30 16:00:00 HR (Humedad Relativa) es igual a 100% y Ts <> Td 8.9 - 9.3 2023-11-18 15:37:00
1 2018-05-31 08:00:00 Ts debe ser mayor o igual a Td Ts=4.2 - Td=4.7 2023-11-18 15:37:00
1 2018-05-31 09:00:00 Ts debe ser mayor o igual a Td Ts=5.0 - Td=5.3 2023-11-18 15:37:00
1 2018-05-31 13:00:00 Ts debe ser mayor o igual a Td Ts=5.2 - Td=5.4 2023-11-18 15:37:00
1 2018-06-01 10:00:00 Ts debe ser mayor o igual a Td Ts=-2.1 - Td=-1.9 2023-11-18 15:37:00
1 2018-06-01 11:00:00 HR (Humedad Relativa) es igual a 100% y Ts <> Td -1.9 - -2.4 2023-11-18 15:37:00
1 2018-06-01 13:00:00 Ts debe ser mayor o igual a Td Ts=-2.5 - Td=0.7 2023-11-18 15:37:00
1 2018-06-01 13:00:00 HR (Humedad Relativa) es igual a 100% y Ts <> Td -2.5 - 0.7 2023-11-18 15:37:00
1 2018-06-01 14:00:00 Ts debe ser mayor o igual a Td Ts=0.7 - Td=5.3 2023-11-18 15:37:00
1 2018-06-01 14:00:00 HR (Humedad Relativa) es igual a 100% y Ts <> Td 0.7 - 5.3 2023-11-18 15:37:00
1 2018-06-01 15:00:00 Ts debe ser mayor o igual a Td Ts=5.4 - Td=6.6 2023-11-18 15:37:00
1 2018-06-02 12:00:00 Ts debe ser mayor o igual a Td Ts=-3.4 - Td=-3.2 2023-11-18 15:37:00
1 2018-06-02 13:00:00 Ts debe ser mayor o igual a Td Ts=-3.0 - Td=2.2 2023-11-18 15:37:00
1 2018-06-02 14:00:00 Ts debe ser mayor o igual a Td Ts=2.4 - Td=3.8 2023-11-18 15:37:00
1 2018-06-03 06:00:00 Ts debe ser mayor o igual a Td Ts=-0.9 - Td=1.6 2023-11-18 15:37:00
1 2018-06-03 07:00:00 Ts debe ser mayor o igual a Td Ts=1.9 - Td=4.0 2023-11-18 15:37:00
1 2018-06-03 08:00:00 Ts debe ser mayor o igual a Td Ts=4.3 - Td=4.4 2023-11-18 15:37:00
1 2018-06-03 09:00:00 Ts debe ser mayor o igual a Td Ts=4.6 - Td=5.0 2023-11-18 15:37:00
1 2018-06-03 13:00:00 Ts debe ser mayor o igual a Td Ts=2.7 - Td=4.9 2023-11-18 15:37:00
1 2018-06-04 09:00:00 Ts debe ser mayor o igual a Td Ts=-3.8 - Td=-3.1 2023-11-18 15:37:00
1 2018-06-04 12:00:00 Ts debe ser mayor o igual a Td Ts=-4.1 - Td=-3.0 2023-11-18 15:37:00
1 2018-06-04 13:00:00 Ts debe ser mayor o igual a Td Ts=-2.6 - Td=-0.8 2023-11-18 15:37:00
1 2018-06-04 14:00:00 Ts debe ser mayor o igual a Td Ts=-0.1 - Td=1.8 2023-11-18 15:37:00
1 2018-06-05 08:00:00 Ts debe ser mayor o igual a Td Ts=-4.4 - Td=-4.1 2023-11-18 15:37:00
1 2018-06-05 12:00:00 Ts debe ser mayor o igual a Td Ts=-3.1 - Td=-2.3 2023-11-18 15:37:00
1 2018-06-06 09:00:00 Ts debe ser mayor o igual a Td Ts=1.4 - Td=1.6 2023-11-18 15:37:00
1 2018-06-06 11:00:00 Ts debe ser mayor o igual a Td Ts=-0.1 - Td=1.4 2023-11-18 15:37:00
1 2018-06-06 13:00:00 Ts debe ser mayor o igual a Td Ts=-0.6 - Td=3.7 2023-11-18 15:37:00
1 2018-06-06 14:00:00 Ts debe ser mayor o igual a Td Ts=4.1 - Td=4.8 2023-11-18 15:37:00
1 2018-06-07 03:00:00 Ts debe ser mayor o igual a Td Ts=3.4 - Td=5.1 2023-11-18 15:37:00
1 2018-06-07 09:00:00 HR (Humedad Relativa) es igual a 100% y Ts <> Td 3.4 - 2.7 2023-11-18 15:37:00
1 2018-06-07 10:00:00 HR (Humedad Relativa) es igual a 100% y Ts <> Td 2.7 - 2.5 2023-11-18 15:37:00
1 2018-06-07 11:00:00 HR (Humedad Relativa) es igual a 100% y Ts <> Td 2.5 - 1.4 2023-11-18 15:37:00
1 2018-06-07 13:00:00 Ts debe ser mayor o igual a Td Ts=1.2 - Td=2.3 2023-11-18 15:37:00
1 2018-06-07 13:00:00 HR (Humedad Relativa) es igual a 100% y Ts <> Td 1.2 - 2.3 2023-11-18 15:37:00
1 2018-06-07 14:00:00 Ts debe ser mayor o igual a Td Ts=2.3 - Td=5.5 2023-11-18 15:37:00
1 2018-06-07 14:00:00 HR (Humedad Relativa) es igual a 100% y Ts <> Td 2.3 - 5.5 2023-11-18 15:37:00
1 2018-06-07 15:00:00 Ts debe ser mayor o igual a Td Ts=5.5 - Td=9.8 2023-11-18 15:37:00
1 2018-06-07 15:00:00 HR (Humedad Relativa) es igual a 100% y Ts <> Td 5.5 - 9.8 2023-11-18 15:37:00
1 2018-06-11 12:00:00 Ts debe ser mayor o igual a Td Ts=3.2 - Td=3.5 2023-11-18 15:37:00
1 2018-06-11 15:00:00 Ts debe ser mayor o igual a Td Ts=2.1 - Td=3.9 2023-11-18 15:37:00
1 2018-06-11 16:00:00 Ts debe ser mayor o igual a Td Ts=4.9 - Td=5.8 2023-11-18 15:37:00
1 2018-06-12 02:00:00 Ts debe ser mayor o igual a Td Ts=0.4 - Td=0.8 2023-11-18 15:37:00
1 2018-06-12 05:00:00 Ts debe ser mayor o igual a Td Ts=1.1 - Td=1.5 2023-11-18 15:37:00
1 2018-06-12 09:00:00 HR (Humedad Relativa) es igual a 100% y Ts <> Td -0.2 - -1.0 2023-11-18 15:37:00
1 2018-06-12 11:00:00 HR (Humedad Relativa) es igual a 100% y Ts <> Td -1.5 - -2.0 2023-11-18 15:37:00
1 2018-06-12 12:00:00 HR (Humedad Relativa) es igual a 100% y Ts <> Td -2.0 - -2.2 2023-11-18 15:37:00
1 2018-06-12 13:00:00 Ts debe ser mayor o igual a Td Ts=-2.2 - Td=0.9 2023-11-18 15:37:00
1 2018-06-12 13:00:00 HR (Humedad Relativa) es igual a 100% y Ts <> Td -2.2 - 0.9 2023-11-18 15:37:00
1 2018-06-12 14:00:00 Ts debe ser mayor o igual a Td Ts=0.9 - Td=4.2 2023-11-18 15:37:00
1 2018-06-12 14:00:00 HR (Humedad Relativa) es igual a 100% y Ts <> Td 0.9 - 4.2 2023-11-18 15:37:00
1 2018-06-13 13:00:00 Ts debe ser mayor o igual a Td Ts=-2.9 - Td=0.3 2023-11-18 15:37:00
1 2018-06-13 14:00:00 Ts debe ser mayor o igual a Td Ts=0.5 - Td=2.3 2023-11-18 15:37:00
1 2018-06-13 15:00:00 Ts debe ser mayor o igual a Td Ts=3.0 - Td=3.1 2023-11-18 15:37:00
1 2018-06-14 13:00:00 Ts debe ser mayor o igual a Td Ts=-2.3 - Td=1.3 2023-11-18 15:37:00
1 2018-06-14 14:00:00 Ts debe ser mayor o igual a Td Ts=1.7 - Td=3.0 2023-11-18 15:37:00
1 2018-06-15 08:00:00 Ts debe ser mayor o igual a Td Ts=2.3 - Td=2.4 2023-11-18 15:37:00
1 2018-06-16 12:00:00 Ts debe ser mayor o igual a Td Ts=-0.2 - Td=1.1 2023-11-18 15:37:00
1 2018-06-16 13:00:00 Ts debe ser mayor o igual a Td Ts=1.3 - Td=5.0 2023-11-18 15:37:00
1 2018-06-16 14:00:00 Ts debe ser mayor o igual a Td Ts=5.4 - Td=6.4 2023-11-18 15:37:00
1 2018-06-17 09:00:00 Ts debe ser mayor o igual a Td Ts=0.9 - Td=1.0 2023-11-18 15:37:00
1 2018-06-17 12:00:00 Ts debe ser mayor o igual a Td Ts=1.1 - Td=1.3 2023-11-18 15:37:00
1 2018-06-17 13:00:00 Ts debe ser mayor o igual a Td Ts=2.1 - Td=5.3 2023-11-18 15:37:00
1 2018-06-18 13:00:00 Ts debe ser mayor o igual a Td Ts=1.2 - Td=6.6 2023-11-18 15:37:00
1 2018-06-19 11:00:00 Ts debe ser mayor o igual a Td Ts=1.2 - Td=1.5 2023-11-18 15:37:00
1 2018-06-19 13:00:00 Ts debe ser mayor o igual a Td Ts=1.0 - Td=5.2 2023-11-18 15:37:00
1 2018-06-19 14:00:00 Ts debe ser mayor o igual a Td Ts=5.5 - Td=7.0 2023-11-18 15:37:00
1 2018-06-20 10:00:00 Ts debe ser mayor o igual a Td Ts=0.1 - Td=0.3 2023-11-18 15:37:00
1 2018-06-20 13:00:00 Ts debe ser mayor o igual a Td Ts=-0.7 - Td=4.2 2023-11-18 15:37:00
1 2018-06-20 14:00:00 Ts debe ser mayor o igual a Td Ts=4.3 - Td=7.3 2023-11-18 15:37:00
1 2018-06-21 01:00:00 Ts debe ser mayor o igual a Td Ts=3.7 - Td=4.7 2023-11-18 15:37:00
1 2018-06-21 06:00:00 Ts debe ser mayor o igual a Td Ts=2.9 - Td=3.2 2023-11-18 15:37:00
1 2018-06-21 06:00:00 HR (Humedad Relativa) es igual a 100% y Ts <> Td 2.9 - 3.2 2023-11-18 15:37:00
1 2018-06-21 07:00:00 HR (Humedad Relativa) es igual a 100% y Ts <> Td 3.2 - 2.6 2023-11-18 15:37:00
1 2018-06-21 08:00:00 HR (Humedad Relativa) es igual a 100% y Ts <> Td 2.6 - 2.0 2023-11-18 15:37:00
1 2018-06-21 10:00:00 Ts debe ser mayor o igual a Td Ts=1.9 - Td=2.3 2023-11-18 15:37:00
1 2018-06-21 10:00:00 HR (Humedad Relativa) es igual a 100% y Ts <> Td 1.9 - 2.3 2023-11-18 15:37:00
1 2018-06-21 11:00:00 Ts debe ser mayor o igual a Td Ts=2.3 - Td=2.7 2023-11-18 15:37:00
1 2018-06-21 11:00:00 HR (Humedad Relativa) es igual a 100% y Ts <> Td 2.3 - 2.7 2023-11-18 15:37:00
1 2018-06-21 12:00:00 HR (Humedad Relativa) es igual a 100% y Ts <> Td 2.7 - 2.3 2023-11-18 15:37:00
1 2018-06-21 14:00:00 Ts debe ser mayor o igual a Td Ts=2.3 - Td=3.2 2023-11-18 15:37:00
1 2018-06-21 14:00:00 HR (Humedad Relativa) es igual a 100% y Ts <> Td 2.3 - 3.2 2023-11-18 15:37:00
1 2018-06-21 15:00:00 Ts debe ser mayor o igual a Td Ts=3.2 - Td=6.0 2023-11-18 15:37:00
1 2018-06-21 15:00:00 HR (Humedad Relativa) es igual a 100% y Ts <> Td 3.2 - 6.0 2023-11-18 15:37:00
1 2018-06-21 16:00:00 Ts debe ser mayor o igual a Td Ts=6.0 - Td=9.2 2023-11-18 15:37:00
1 2018-06-21 16:00:00 HR (Humedad Relativa) es igual a 100% y Ts <> Td 6.0 - 9.2 2023-11-18 15:37:00
1 2018-06-21 17:00:00 HR (Humedad Relativa) es igual a 100% y Ts <> Td 9.2 - 6.9 2023-11-18 15:37:00
1 2018-06-22 06:00:00 Ts debe ser mayor o igual a Td Ts=-0.1 - Td=1.0 2023-11-18 15:37:00
1 2018-06-22 13:00:00 Ts debe ser mayor o igual a Td Ts=-1.0 - Td=1.7 2023-11-18 15:37:00
1 2018-06-22 14:00:00 Ts debe ser mayor o igual a Td Ts=1.7 - Td=4.6 2023-11-18 15:37:00
1 2018-06-22 15:00:00 Ts debe ser mayor o igual a Td Ts=4.8 - Td=6.0 2023-11-18 15:37:00
1 2018-06-23 06:00:00 Ts debe ser mayor o igual a Td Ts=0.9 - Td=1.2 2023-11-18 15:37:00
1 2018-06-23 07:00:00 Ts debe ser mayor o igual a Td Ts=1.6 - Td=1.8 2023-11-18 15:37:00
1 2018-06-23 10:00:00 Ts debe ser mayor o igual a Td Ts=0.9 - Td=1.1 2023-11-18 15:37:00
1 2018-06-23 12:00:00 Ts debe ser mayor o igual a Td Ts=-0.2 - Td=0.9 2023-11-18 15:37:00
1 2018-06-23 13:00:00 Ts debe ser mayor o igual a Td Ts=1.0 - Td=2.0 2023-11-18 15:37:00
1 2018-06-23 14:00:00 Ts debe ser mayor o igual a Td Ts=2.2 - Td=3.9 2023-11-18 15:37:00
1 2018-06-24 05:00:00 Ts debe ser mayor o igual a Td Ts=0.3 - Td=1.9 2023-11-18 15:37:00
1 2018-06-24 11:00:00 Ts debe ser mayor o igual a Td Ts=5.0 - Td=5.1 2023-11-18 15:37:00
1 2018-06-24 12:00:00 Ts debe ser mayor o igual a Td Ts=5.5 - Td=5.6 2023-11-18 15:37:00
1 2018-06-24 13:00:00 Ts debe ser mayor o igual a Td Ts=5.9 - Td=6.5 2023-11-18 15:37:00
1 2018-06-24 14:00:00 Ts debe ser mayor o igual a Td Ts=6.7 - Td=7.2 2023-11-18 15:37:00
1 2018-06-24 15:00:00 Ts debe ser mayor o igual a Td Ts=7.3 - Td=9.0 2023-11-18 15:37:00
1 2018-06-25 01:00:00 Ts debe ser mayor o igual a Td Ts=6.0 - Td=6.6 2023-11-18 15:37:00
1 2018-06-25 03:00:00 Ts debe ser mayor o igual a Td Ts=6.3 - Td=6.4 2023-11-18 15:37:00
1 2018-06-25 04:00:00 Ts debe ser mayor o igual a Td Ts=6.4 - Td=6.5 2023-11-18 15:37:00
1 2018-06-25 05:00:00 Ts debe ser mayor o igual a Td Ts=6.5 - Td=6.8 2023-11-18 15:37:00
1 2018-06-25 05:00:00 HR (Humedad Relativa) es igual a 100% y Ts <> Td 6.5 - 6.8 2023-11-18 15:37:00
1 2018-06-25 06:00:00 HR (Humedad Relativa) es igual a 100% y Ts <> Td 6.8 - 6.5 2023-11-18 15:37:00
1 2018-06-25 07:00:00 Ts debe ser mayor o igual a Td Ts=6.5 - Td=6.8 2023-11-18 15:37:00
1 2018-06-25 07:00:00 HR (Humedad Relativa) es igual a 100% y Ts <> Td 6.5 - 6.8 2023-11-18 15:37:00
1 2018-06-25 08:00:00 Ts debe ser mayor o igual a Td Ts=6.8 - Td=6.9 2023-11-18 15:37:00
1 2018-06-25 11:00:00 HR (Humedad Relativa) es igual a 100% y Ts <> Td 6.8 - 6.3 2023-11-18 15:37:00
1 2018-06-25 12:00:00 HR (Humedad Relativa) es igual a 100% y Ts <> Td 6.3 - 6.0 2023-11-18 15:37:00
1 2018-06-25 13:00:00 Ts debe ser mayor o igual a Td Ts=6.0 - Td=6.7 2023-11-18 15:37:00
1 2018-06-25 13:00:00 HR (Humedad Relativa) es igual a 100% y Ts <> Td 6.0 - 6.7 2023-11-18 15:37:00
1 2018-06-25 14:00:00 Ts debe ser mayor o igual a Td Ts=6.7 - Td=7.5 2023-11-18 15:37:00
1 2018-06-25 14:00:00 HR (Humedad Relativa) es igual a 100% y Ts <> Td 6.7 - 7.5 2023-11-18 15:37:00
1 2018-06-25 15:00:00 Ts debe ser mayor o igual a Td Ts=7.4 - Td=8.4 2023-11-18 15:37:00
1 2018-06-25 15:00:00 HR (Humedad Relativa) es igual a 100% y Ts <> Td 7.4 - 8.4 2023-11-18 15:37:00
1 2018-06-26 02:00:00 Ts debe ser mayor o igual a Td Ts=4.7 - Td=5.8 2023-11-18 15:37:00
1 2018-06-26 03:00:00 Ts debe ser mayor o igual a Td Ts=6.0 - Td=6.1 2023-11-18 15:37:00
1 2018-06-26 06:00:00 Ts debe ser mayor o igual a Td Ts=5.2 - Td=5.7 2023-11-18 15:37:00
1 2018-06-26 08:00:00 Ts debe ser mayor o igual a Td Ts=5.7 - Td=5.9 2023-11-18 15:37:00
1 2018-06-26 10:00:00 Ts debe ser mayor o igual a Td Ts=5.5 - Td=6.1 2023-11-18 15:37:00
1 2018-06-26 12:00:00 Ts debe ser mayor o igual a Td Ts=6.1 - Td=6.4 2023-11-18 15:37:00
1 2018-06-26 12:00:00 HR (Humedad Relativa) es igual a 100% y Ts <> Td 6.1 - 6.4 2023-11-18 15:37:00
1 2018-06-26 13:00:00 Ts debe ser mayor o igual a Td Ts=6.4 - Td=6.7 2023-11-18 15:37:00
1 2018-06-26 14:00:00 Ts debe ser mayor o igual a Td Ts=6.7 - Td=7.9 2023-11-18 15:37:00
1 2018-06-27 13:00:00 Ts debe ser mayor o igual a Td Ts=6.2 - Td=6.5 2023-11-18 15:37:00
1 2018-06-27 14:00:00 Ts debe ser mayor o igual a Td Ts=7.2 - Td=8.2 2023-11-18 15:37:00
1 2018-06-28 05:00:00 Ts debe ser mayor o igual a Td Ts=6.7 - Td=7.0 2023-11-18 15:37:00
1 2018-06-28 07:00:00 Ts debe ser mayor o igual a Td Ts=7.1 - Td=7.5 2023-11-18 15:37:00
1 2018-06-28 10:00:00 Ts debe ser mayor o igual a Td Ts=7.6 - Td=8.1 2023-11-18 15:37:00
1 2018-06-28 12:00:00 Ts debe ser mayor o igual a Td Ts=8.1 - Td=8.5 2023-11-18 15:37:00
1 2018-06-28 12:00:00 HR (Humedad Relativa) es igual a 100% y Ts <> Td 8.1 - 8.5 2023-11-18 15:37:00
1 2018-06-28 13:00:00 Ts debe ser mayor o igual a Td Ts=8.5 - Td=9.1 2023-11-18 15:37:00
1 2018-06-28 13:00:00 HR (Humedad Relativa) es igual a 100% y Ts <> Td 8.5 - 9.1 2023-11-18 15:37:00
1 2018-06-28 14:00:00 Ts debe ser mayor o igual a Td Ts=9.0 - Td=10.1 2023-11-18 15:37:00
1 2018-06-28 14:00:00 HR (Humedad Relativa) es igual a 100% y Ts <> Td 9.0 - 10.1 2023-11-18 15:37:00
1 2018-06-28 15:00:00 Ts debe ser mayor o igual a Td Ts=10.1 - Td=10.7 2023-11-18 15:37:00
1 2018-06-29 08:00:00 HR (Humedad Relativa) es igual a 100% y Ts <> Td 8.1 - 7.0 2023-11-18 15:37:00
1 2018-06-29 09:00:00 HR (Humedad Relativa) es igual a 100% y Ts <> Td 7.0 - 6.0 2023-11-18 15:37:00
1 2018-06-29 10:00:00 Ts debe ser mayor o igual a Td Ts=6.0 - Td=7.5 2023-11-18 15:37:00
1 2018-06-29 10:00:00 HR (Humedad Relativa) es igual a 100% y Ts <> Td 6.0 - 7.5 2023-11-18 15:37:00
1 2018-06-29 11:00:00 Ts debe ser mayor o igual a Td Ts=7.5 - Td=8.0 2023-11-18 15:37:00
1 2018-06-29 11:00:00 HR (Humedad Relativa) es igual a 100% y Ts <> Td 7.5 - 8.0 2023-11-18 15:37:00
1 2018-06-29 12:00:00 Ts debe ser mayor o igual a Td Ts=8.0 - Td=8.5 2023-11-18 15:37:00
1 2018-06-29 12:00:00 HR (Humedad Relativa) es igual a 100% y Ts <> Td 8.0 - 8.5 2023-11-18 15:37:00
1 2018-06-29 13:00:00 Ts debe ser mayor o igual a Td Ts=8.5 - Td=8.6 2023-11-18 15:37:00
1 2018-06-29 14:00:00 Ts debe ser mayor o igual a Td Ts=8.6 - Td=9.0 2023-11-18 15:37:00
1 2018-06-29 14:00:00 HR (Humedad Relativa) es igual a 100% y Ts <> Td 8.6 - 9.0 2023-11-18 15:37:00
1 2018-06-29 15:00:00 Ts debe ser mayor o igual a Td Ts=8.9 - Td=9.5 2023-11-18 15:37:00
1 2018-06-29 15:00:00 HR (Humedad Relativa) es igual a 100% y Ts <> Td 8.9 - 9.5 2023-11-18 15:37:00
1 2018-06-29 16:00:00 Ts debe ser mayor o igual a Td Ts=9.8 - Td=10.5 2023-11-18 15:37:00
1 2018-06-30 07:00:00 Ts debe ser mayor o igual a Td Ts=1.9 - Td=2.1 2023-11-18 15:37:00
1 2018-06-30 08:00:00 Ts debe ser mayor o igual a Td Ts=2.2 - Td=2.7 2023-11-18 15:37:00
1 2018-06-30 11:00:00 HR (Humedad Relativa) es igual a 100% y Ts <> Td 0.8 - 0.5 2023-11-18 15:37:00
1 2018-06-30 12:00:00 Ts debe ser mayor o igual a Td Ts=0.5 - Td=1.8 2023-11-18 15:37:00
1 2018-06-30 12:00:00 HR (Humedad Relativa) es igual a 100% y Ts <> Td 0.5 - 1.8 2023-11-18 15:37:00
1 2018-06-30 13:00:00 Ts debe ser mayor o igual a Td Ts=1.8 - Td=6.3 2023-11-18 15:37:00
1 2018-06-30 13:00:00 HR (Humedad Relativa) es igual a 100% y Ts <> Td 1.8 - 6.3 2023-11-18 15:37:00
1 2018-06-30 14:00:00 Ts debe ser mayor o igual a Td Ts=6.3 - Td=8.5 2023-11-18 15:37:00
1 2018-06-30 14:00:00 HR (Humedad Relativa) es igual a 100% y Ts <> Td 6.3 - 8.5 2023-11-18 15:37:00
1 2018-07-01 12:00:00 Ts debe ser mayor o igual a Td Ts=3.7 - Td=3.9 2023-11-18 15:37:00
1 2018-07-01 13:00:00 Ts debe ser mayor o igual a Td Ts=4.3 - Td=5.5 2023-11-18 15:37:00
1 2018-07-02 06:00:00 Ts debe ser mayor o igual a Td Ts=8.3 - Td=8.6 2023-11-18 15:37:00
1 2018-07-02 13:00:00 Ts debe ser mayor o igual a Td Ts=5.5 - Td=8.0 2023-11-18 15:37:00
1 2018-07-02 13:00:00 HR (Humedad Relativa) es igual a 100% y Ts <> Td 5.5 - 8.0 2023-11-18 15:37:00
1 2018-07-02 14:00:00 Ts debe ser mayor o igual a Td Ts=8.0 - Td=10.7 2023-11-18 15:37:00
1 2018-07-02 14:00:00 HR (Humedad Relativa) es igual a 100% y Ts <> Td 8.0 - 10.7 2023-11-18 15:37:00
1 2018-07-03 08:00:00 Ts debe ser mayor o igual a Td Ts=5.4 - Td=6.3 2023-11-18 15:37:00
1 2018-07-03 10:00:00 Ts debe ser mayor o igual a Td Ts=5.0 - Td=5.5 2023-11-18 15:37:00
1 2018-07-03 12:00:00 Ts debe ser mayor o igual a Td Ts=5.3 - Td=6.0 2023-11-18 15:37:00
1 2018-07-03 13:00:00 Ts debe ser mayor o igual a Td Ts=6.2 - Td=6.7 2023-11-18 15:37:00
1 2018-07-03 14:00:00 Ts debe ser mayor o igual a Td Ts=6.9 - Td=8.0 2023-11-18 15:37:00
1 2018-07-03 15:00:00 Ts debe ser mayor o igual a Td Ts=8.3 - Td=8.9 2023-11-18 15:37:00
1 2018-07-03 16:00:00 Ts debe ser mayor o igual a Td Ts=10.0 - Td=10.4 2023-11-18 15:37:00
1 2018-07-06 05:00:00 Ts debe ser mayor o igual a Td Ts=6.8 - Td=7.1 2023-11-18 15:38:00
1 2018-07-06 06:00:00 Ts debe ser mayor o igual a Td Ts=7.1 - Td=7.2 2023-11-18 15:38:00
1 2018-07-06 07:00:00 Ts debe ser mayor o igual a Td Ts=7.2 - Td=8.0 2023-11-18 15:38:00
1 2018-07-06 08:00:00 Ts debe ser mayor o igual a Td Ts=8.0 - Td=8.9 2023-11-18 15:38:00
1 2018-07-06 19:00:00 Ts debe ser mayor o igual a Td Ts=9.7 - Td=9.8 2023-11-18 15:38:00
1 2018-07-07 03:00:00 HR (Humedad Relativa) es igual a 100% y Ts <> Td 6.7 - 6.2 2023-11-18 15:38:00
1 2018-07-07 04:00:00 Ts debe ser mayor o igual a Td Ts=6.2 - Td=6.6 2023-11-18 15:38:00
1 2018-07-07 04:00:00 HR (Humedad Relativa) es igual a 100% y Ts <> Td 6.2 - 6.6 2023-11-18 15:38:00
1 2018-07-07 05:00:00 HR (Humedad Relativa) es igual a 100% y Ts <> Td 6.6 - 6.0 2023-11-18 15:38:00
1 2018-07-07 06:00:00 HR (Humedad Relativa) es igual a 100% y Ts <> Td 6.0 - 5.2 2023-11-18 15:38:00
1 2018-07-07 07:00:00 HR (Humedad Relativa) es igual a 100% y Ts <> Td 5.2 - 4.7 2023-11-18 15:38:00
1 2018-07-07 08:00:00 HR (Humedad Relativa) es igual a 100% y Ts <> Td 4.7 - 4.4 2023-11-18 15:38:00
1 2018-07-07 09:00:00 HR (Humedad Relativa) es igual a 100% y Ts <> Td 4.4 - 2.9 2023-11-18 15:38:00
1 2018-07-07 10:00:00 Ts debe ser mayor o igual a Td Ts=2.9 - Td=3.1 2023-11-18 15:38:00
1 2018-07-07 11:00:00 HR (Humedad Relativa) es igual a 100% y Ts <> Td 3.1 - 2.1 2023-11-18 15:38:00
1 2018-07-07 12:00:00 Ts debe ser mayor o igual a Td Ts=2.1 - Td=2.5 2023-11-18 15:38:00
1 2018-07-07 12:00:00 HR (Humedad Relativa) es igual a 100% y Ts <> Td 2.1 - 2.5 2023-11-18 15:38:00
1 2018-07-07 13:00:00 Ts debe ser mayor o igual a Td Ts=2.5 - Td=5.1 2023-11-18 15:38:00
1 2018-07-07 13:00:00 HR (Humedad Relativa) es igual a 100% y Ts <> Td 2.5 - 5.1 2023-11-18 15:38:00
1 2018-07-07 14:00:00 Ts debe ser mayor o igual a Td Ts=5.1 - Td=8.8 2023-11-18 15:38:00
1 2018-07-07 14:00:00 HR (Humedad Relativa) es igual a 100% y Ts <> Td 5.1 - 8.8 2023-11-18 15:38:00
1 2018-07-07 15:00:00 Ts debe ser mayor o igual a Td Ts=8.8 - Td=10.7 2023-11-18 15:38:00
1 2018-07-07 15:00:00 HR (Humedad Relativa) es igual a 100% y Ts <> Td 8.8 - 10.7 2023-11-18 15:38:00
1 2018-07-08 01:00:00 Ts debe ser mayor o igual a Td Ts=6.5 - Td=7.0 2023-11-18 15:38:00
1 2018-07-08 08:00:00 HR (Humedad Relativa) es igual a 100% y Ts <> Td 5.1 - 4.8 2023-11-18 15:38:00
1 2018-07-08 09:00:00 Ts debe ser mayor o igual a Td Ts=4.8 - Td=5.0 2023-11-18 15:38:00
1 2018-07-08 10:00:00 HR (Humedad Relativa) es igual a 100% y Ts <> Td 5.0 - 4.3 2023-11-18 15:38:00
1 2018-07-08 11:00:00 Ts debe ser mayor o igual a Td Ts=4.3 - Td=4.7 2023-11-18 15:38:00
1 2018-07-08 11:00:00 HR (Humedad Relativa) es igual a 100% y Ts <> Td 4.3 - 4.7 2023-11-18 15:38:00
1 2018-07-08 12:00:00 HR (Humedad Relativa) es igual a 100% y Ts <> Td 4.7 - 2.8 2023-11-18 15:38:00
1 2018-07-08 13:00:00 Ts debe ser mayor o igual a Td Ts=2.8 - Td=5.7 2023-11-18 15:38:00
1 2018-07-08 13:00:00 HR (Humedad Relativa) es igual a 100% y Ts <> Td 2.8 - 5.7 2023-11-18 15:38:00
1 2018-07-08 14:00:00 Ts debe ser mayor o igual a Td Ts=5.7 - Td=8.6 2023-11-18 15:38:00
1 2018-07-08 14:00:00 HR (Humedad Relativa) es igual a 100% y Ts <> Td 5.7 - 8.6 2023-11-18 15:38:00
1 2018-07-09 06:00:00 Ts debe ser mayor o igual a Td Ts=1.9 - Td=2.0 2023-11-18 15:38:00
1 2018-07-09 10:00:00 Ts debe ser mayor o igual a Td Ts=-0.3 - Td=-0.2 2023-11-18 15:38:00
1 2018-07-09 11:00:00 Ts debe ser mayor o igual a Td Ts=0.0 - Td=0.2 2023-11-18 15:38:00
1 2018-07-09 13:00:00 Ts debe ser mayor o igual a Td Ts=0.0 - Td=4.3 2023-11-18 15:38:00
1 2018-07-09 14:00:00 Ts debe ser mayor o igual a Td Ts=5.1 - Td=6.7 2023-11-18 15:38:00
1 2018-07-10 06:00:00 Ts debe ser mayor o igual a Td Ts=3.0 - Td=3.1 2023-11-18 15:38:00
1 2018-07-10 08:00:00 Ts debe ser mayor o igual a Td Ts=1.5 - Td=2.4 2023-11-18 15:38:00
1 2018-07-10 10:00:00 Ts debe ser mayor o igual a Td Ts=1.2 - Td=3.5 2023-11-18 15:38:00
1 2018-07-10 11:00:00 Ts debe ser mayor o igual a Td Ts=3.5 - Td=4.1 2023-11-18 15:38:00
1 2018-07-10 12:00:00 Ts debe ser mayor o igual a Td Ts=4.1 - Td=4.8 2023-11-18 15:38:00
1 2018-07-10 12:00:00 HR (Humedad Relativa) es igual a 100% y Ts <> Td 4.1 - 4.8 2023-11-18 15:38:00
1 2018-07-10 13:00:00 Ts debe ser mayor o igual a Td Ts=4.8 - Td=5.0 2023-11-18 15:38:00
1 2018-07-10 14:00:00 Ts debe ser mayor o igual a Td Ts=5.0 - Td=5.2 2023-11-18 15:38:00
1 2018-07-10 15:00:00 Ts debe ser mayor o igual a Td Ts=5.2 - Td=5.3 2023-11-18 15:38:00
1 2018-07-10 16:00:00 Ts debe ser mayor o igual a Td Ts=5.3 - Td=5.8 2023-11-18 15:38:00
1 2018-07-10 16:00:00 HR (Humedad Relativa) es igual a 100% y Ts <> Td 5.3 - 5.8 2023-11-18 15:38:00
1 2018-07-10 17:00:00 Ts debe ser mayor o igual a Td Ts=5.8 - Td=6.4 2023-11-18 15:38:00
1 2018-07-10 17:00:00 HR (Humedad Relativa) es igual a 100% y Ts <> Td 5.8 - 6.4 2023-11-18 15:38:00
1 2018-07-10 18:00:00 Ts debe ser mayor o igual a Td Ts=6.5 - Td=6.8 2023-11-18 15:38:00
1 2018-07-12 04:00:00 Ts debe ser mayor o igual a Td Ts=1.9 - Td=2.2 2023-11-18 15:38:00
1 2018-07-12 08:00:00 Ts debe ser mayor o igual a Td Ts=0.5 - Td=0.6 2023-11-18 15:38:00
1 2018-07-12 10:00:00 Ts debe ser mayor o igual a Td Ts=0.6 - Td=1.9 2023-11-18 15:38:00
1 2018-07-12 10:00:00 HR (Humedad Relativa) es igual a 100% y Ts <> Td 0.6 - 1.9 2023-11-18 15:38:00
1 2018-07-12 11:00:00 Ts debe ser mayor o igual a Td Ts=1.9 - Td=2.6 2023-11-18 15:38:00
1 2018-07-12 11:00:00 HR (Humedad Relativa) es igual a 100% y Ts <> Td 1.9 - 2.6 2023-11-18 15:38:00
1 2018-07-12 12:00:00 HR (Humedad Relativa) es igual a 100% y Ts <> Td 2.6 - 2.1 2023-11-18 15:38:00
1 2018-07-12 13:00:00 Ts debe ser mayor o igual a Td Ts=2.1 - Td=4.4 2023-11-18 15:38:00
1 2018-07-12 13:00:00 HR (Humedad Relativa) es igual a 100% y Ts <> Td 2.1 - 4.4 2023-11-18 15:38:00
1 2018-07-12 14:00:00 Ts debe ser mayor o igual a Td Ts=4.4 - Td=7.1 2023-11-18 15:38:00
1 2018-07-12 14:00:00 HR (Humedad Relativa) es igual a 100% y Ts <> Td 4.4 - 7.1 2023-11-18 15:38:00
1 2018-07-13 13:00:00 Ts debe ser mayor o igual a Td Ts=3.7 - Td=5.9 2023-11-18 15:38:00
1 2018-07-13 14:00:00 Ts debe ser mayor o igual a Td Ts=6.5 - Td=7.9 2023-11-18 15:38:00
1 2018-07-14 13:00:00 Ts debe ser mayor o igual a Td Ts=6.7 - Td=8.3 2023-11-18 15:38:00
1 2018-07-14 14:00:00 Ts debe ser mayor o igual a Td Ts=9.2 - Td=9.6 2023-11-18 15:38:00
1 2018-07-14 15:00:00 Ts debe ser mayor o igual a Td Ts=10.3 - Td=10.6 2023-11-18 15:38:00
1 2018-07-15 02:00:00 Ts debe ser mayor o igual a Td Ts=8.5 - Td=9.2 2023-11-18 15:38:00
1 2018-07-15 03:00:00 Ts debe ser mayor o igual a Td Ts=9.5 - Td=9.9 2023-11-18 15:38:00
1 2018-07-15 09:00:00 Ts debe ser mayor o igual a Td Ts=8.4 - Td=9.1 2023-11-18 15:38:00
1 2018-07-15 10:00:00 Ts debe ser mayor o igual a Td Ts=9.1 - Td=9.3 2023-11-18 15:38:00
1 2018-07-15 12:00:00 Ts debe ser mayor o igual a Td Ts=9.3 - Td=9.4 2023-11-18 15:38:00
1 2018-07-15 13:00:00 Ts debe ser mayor o igual a Td Ts=9.4 - Td=9.6 2023-11-18 15:38:00
1 2018-07-15 13:00:00 HR (Humedad Relativa) es igual a 100% y Ts <> Td 9.4 - 9.6 2023-11-18 15:38:00
1 2018-07-15 14:00:00 Ts debe ser mayor o igual a Td Ts=9.6 - Td=9.9 2023-11-18 15:38:00
1 2018-07-15 14:00:00 HR (Humedad Relativa) es igual a 100% y Ts <> Td 9.6 - 9.9 2023-11-18 15:38:00
1 2018-07-15 15:00:00 Ts debe ser mayor o igual a Td Ts=9.9 - Td=10.0 2023-11-18 15:38:00
1 2018-07-17 13:00:00 Ts debe ser mayor o igual a Td Ts=5.0 - Td=5.2 2023-11-18 15:38:00
1 2018-07-17 14:00:00 Ts debe ser mayor o igual a Td Ts=5.6 - Td=6.0 2023-11-18 15:38:00
1 2018-07-18 13:00:00 Ts debe ser mayor o igual a Td Ts=4.4 - Td=4.5 2023-11-18 15:38:00
1 2018-07-18 16:00:00 Ts debe ser mayor o igual a Td Ts=6.1 - Td=6.2 2023-11-18 15:38:00
1 2018-07-19 09:00:00 Ts debe ser mayor o igual a Td Ts=-1.5 - Td=-1.2 2023-11-18 15:38:00
1 2018-07-19 13:00:00 Ts debe ser mayor o igual a Td Ts=-1.6 - Td=0.5 2023-11-18 15:38:00
1 2018-07-19 14:00:00 Ts debe ser mayor o igual a Td Ts=0.6 - Td=3.7 2023-11-18 15:38:00
1 2018-07-20 09:00:00 Ts debe ser mayor o igual a Td Ts=-3.0 - Td=-2.4 2023-11-18 15:38:00
1 2018-07-20 11:00:00 Ts debe ser mayor o igual a Td Ts=-3.6 - Td=-3.2 2023-11-18 15:38:00
1 2018-07-20 13:00:00 Ts debe ser mayor o igual a Td Ts=-4.2 - Td=-0.2 2023-11-18 15:38:00
1 2018-07-20 14:00:00 Ts debe ser mayor o igual a Td Ts=0.2 - Td=1.4 2023-11-18 15:38:00
1 2018-07-21 13:00:00 Ts debe ser mayor o igual a Td Ts=0.2 - Td=1.0 2023-11-18 15:38:00
1 2018-07-22 13:00:00 Ts debe ser mayor o igual a Td Ts=0.6 - Td=3.5 2023-11-18 15:38:00
1 2018-07-22 14:00:00 Ts debe ser mayor o igual a Td Ts=4.2 - Td=4.6 2023-11-18 15:38:00
1 2018-07-23 06:00:00 Ts debe ser mayor o igual a Td Ts=-1.3 - Td=-1.0 2023-11-18 15:38:00
1 2018-07-23 11:00:00 Ts debe ser mayor o igual a Td Ts=-2.3 - Td=-1.8 2023-11-18 15:38:00
1 2018-07-23 12:00:00 Ts debe ser mayor o igual a Td Ts=-1.6 - Td=-1.5 2023-11-18 15:38:00
1 2018-07-23 13:00:00 Ts debe ser mayor o igual a Td Ts=-1.4 - Td=-1.3 2023-11-18 15:38:00
1 2018-07-23 14:00:00 Ts debe ser mayor o igual a Td Ts=-1.2 - Td=0.4 2023-11-18 15:38:00
1 2018-07-23 14:00:00 HR (Humedad Relativa) es igual a 100% y Ts <> Td -1.2 - 0.4 2023-11-18 15:38:00
1 2018-07-23 15:00:00 Ts debe ser mayor o igual a Td Ts=0.4 - Td=3.4 2023-11-18 15:38:00
1 2018-07-23 15:00:00 HR (Humedad Relativa) es igual a 100% y Ts <> Td 0.4 - 3.4 2023-11-18 15:38:00
1 2018-07-23 16:00:00 Ts debe ser mayor o igual a Td Ts=3.4 - Td=5.2 2023-11-18 15:38:00
1 2018-07-23 16:00:00 HR (Humedad Relativa) es igual a 100% y Ts <> Td 3.4 - 5.2 2023-11-18 15:38:00
1 2018-07-25 05:00:00 Ts debe ser mayor o igual a Td Ts=-0.2 - Td=0.1 2023-11-18 15:38:00
1 2018-07-25 09:00:00 Ts debe ser mayor o igual a Td Ts=-1.6 - Td=0.4 2023-11-18 15:38:00
1 2018-07-25 13:00:00 Ts debe ser mayor o igual a Td Ts=0.3 - Td=3.2 2023-11-18 15:38:00
1 2018-07-25 14:00:00 Ts debe ser mayor o igual a Td Ts=5.3 - Td=6.2 2023-11-18 15:38:00
1 2018-07-26 09:00:00 Ts debe ser mayor o igual a Td Ts=0.3 - Td=0.4 2023-11-18 15:38:00
1 2018-07-26 12:00:00 Ts debe ser mayor o igual a Td Ts=0.2 - Td=1.2 2023-11-18 15:38:00
1 2018-07-26 13:00:00 Ts debe ser mayor o igual a Td Ts=1.8 - Td=4.5 2023-11-18 15:38:00
1 2018-07-28 10:00:00 Ts debe ser mayor o igual a Td Ts=-0.7 - Td=-0.6 2023-11-18 15:38:00
1 2018-07-28 12:00:00 HR (Humedad Relativa) es igual a 100% y Ts <> Td -0.9 - -1.1 2023-11-18 15:38:00
1 2018-07-28 13:00:00 Ts debe ser mayor o igual a Td Ts=-1.1 - Td=3.8 2023-11-18 15:38:00
1 2018-07-28 13:00:00 HR (Humedad Relativa) es igual a 100% y Ts <> Td -1.1 - 3.8 2023-11-18 15:38:00
1 2018-07-28 14:00:00 Ts debe ser mayor o igual a Td Ts=3.8 - Td=6.0 2023-11-18 15:38:00
1 2018-07-28 14:00:00 HR (Humedad Relativa) es igual a 100% y Ts <> Td 3.8 - 6.0 2023-11-18 15:38:00
1 2018-07-29 11:00:00 Ts debe ser mayor o igual a Td Ts=0.8 - Td=1.5 2023-11-18 15:38:00
1 2018-07-29 13:00:00 Ts debe ser mayor o igual a Td Ts=1.7 - Td=3.7 2023-11-18 15:38:00
1 2018-07-29 14:00:00 Ts debe ser mayor o igual a Td Ts=4.6 - Td=4.9 2023-11-18 15:38:00
1 2018-07-30 05:00:00 Ts debe ser mayor o igual a Td Ts=0.2 - Td=0.5 2023-11-18 15:38:00
1 2018-07-30 08:00:00 Ts debe ser mayor o igual a Td Ts=-0.1 - Td=0.2 2023-11-18 15:38:00
1 2018-07-30 11:00:00 Ts debe ser mayor o igual a Td Ts=-0.9 - Td=-0.1 2023-11-18 15:38:00
1 2018-07-30 13:00:00 Ts debe ser mayor o igual a Td Ts=-0.2 - Td=3.1 2023-11-18 15:38:00
1 2018-07-30 14:00:00 Ts debe ser mayor o igual a Td Ts=3.2 - Td=4.7 2023-11-18 15:38:00
1 2018-07-31 06:00:00 Ts debe ser mayor o igual a Td Ts=-1.0 - Td=-0.6 2023-11-18 15:38:00
1 2018-07-31 13:00:00 Ts debe ser mayor o igual a Td Ts=-0.3 - Td=1.5 2023-11-18 15:38:00
1 2018-07-31 14:00:00 Ts debe ser mayor o igual a Td Ts=3.0 - Td=3.6 2023-11-18 15:38:00
1 2018-08-01 13:00:00 Ts debe ser mayor o igual a Td Ts=0.2 - Td=1.6 2023-11-18 15:38:00
1 2018-08-02 13:00:00 Ts debe ser mayor o igual a Td Ts=0.0 - Td=1.1 2023-11-18 15:38:00
1 2018-08-03 09:00:00 Ts debe ser mayor o igual a Td Ts=0.6 - Td=0.7 2023-11-18 15:38:00
1 2018-08-03 13:00:00 Ts debe ser mayor o igual a Td Ts=0.0 - Td=2.2 2023-11-18 15:38:00
1 2018-08-03 14:00:00 Ts debe ser mayor o igual a Td Ts=3.4 - Td=5.0 2023-11-18 15:38:00
1 2018-08-04 07:00:00 Ts debe ser mayor o igual a Td Ts=-0.1 - Td=0.3 2023-11-18 15:38:00
1 2018-08-04 11:00:00 Ts debe ser mayor o igual a Td Ts=0.0 - Td=0.1 2023-11-18 15:38:00
1 2018-08-04 12:00:00 Ts debe ser mayor o igual a Td Ts=0.4 - Td=0.5 2023-11-18 15:38:00
1 2018-08-04 13:00:00 Ts debe ser mayor o igual a Td Ts=0.8 - Td=3.5 2023-11-18 15:38:00
1 2018-08-04 14:00:00 Ts debe ser mayor o igual a Td Ts=4.1 - Td=6.0 2023-11-18 15:38:00
1 2018-08-07 13:00:00 Ts debe ser mayor o igual a Td Ts=6.6 - Td=7.5 2023-11-18 15:38:00
1 2018-08-08 09:00:00 Ts debe ser mayor o igual a Td Ts=-0.2 - Td=-0.1 2023-11-18 15:38:00
1 2018-08-08 10:00:00 Ts debe ser mayor o igual a Td Ts=0.1 - Td=0.6 2023-11-18 15:38:00
1 2018-08-08 12:00:00 Ts debe ser mayor o igual a Td Ts=-0.6 - Td=-0.1 2023-11-18 15:38:00
1 2018-08-08 13:00:00 Ts debe ser mayor o igual a Td Ts=0.6 - Td=0.9 2023-11-18 15:38:00
1 2018-08-09 04:00:00 Ts debe ser mayor o igual a Td Ts=4.6 - Td=4.7 2023-11-18 15:38:00
1 2018-08-09 13:00:00 Ts debe ser mayor o igual a Td Ts=5.2 - Td=5.5 2023-11-18 15:38:00
1 2018-08-10 12:00:00 Ts debe ser mayor o igual a Td Ts=2.9 - Td=4.1 2023-11-18 15:38:00
1 2018-08-10 13:00:00 Ts debe ser mayor o igual a Td Ts=4.6 - Td=7.1 2023-11-18 15:38:00
1 2018-08-11 13:00:00 Ts debe ser mayor o igual a Td Ts=5.3 - Td=7.8 2023-11-18 15:38:00
1 2019-04-07 12:00:00 Ts debe ser mayor o igual a Td Ts=6.6 - Td=9.4 2023-11-18 15:42:00
1 2019-04-08 12:00:00 Ts debe ser mayor o igual a Td Ts=5.6 - Td=8.7 2023-11-18 15:42:00
1 2019-04-08 13:00:00 Ts debe ser mayor o igual a Td Ts=9.4 - Td=9.7 2023-11-18 15:42:00
1 2019-04-09 09:00:00 Ts debe ser mayor o igual a Td Ts=6.6 - Td=8.6 2023-11-18 15:42:00
1 2019-04-09 10:00:00 Ts debe ser mayor o igual a Td Ts=9.0 - Td=9.1 2023-11-18 15:42:00
1 2019-04-09 12:00:00 Ts debe ser mayor o igual a Td Ts=9.3 - Td=9.4 2023-11-18 15:42:00
1 2019-04-09 13:00:00 Ts debe ser mayor o igual a Td Ts=9.7 - Td=9.8 2023-11-18 15:42:00
1 2019-04-09 15:00:00 Ts debe ser mayor o igual a Td Ts=10.3 - Td=10.4 2023-11-18 15:42:00
1 2019-04-09 17:00:00 Ts debe ser mayor o igual a Td Ts=12.0 - Td=12.1 2023-11-18 15:42:00
1 2019-04-11 12:00:00 Ts debe ser mayor o igual a Td Ts=2.6 - Td=6.9 2023-11-18 15:42:00
1 2019-04-11 13:00:00 Ts debe ser mayor o igual a Td Ts=7.2 - Td=9.1 2023-11-18 15:42:00
1 2019-04-12 09:00:00 Ts debe ser mayor o igual a Td Ts=4.7 - Td=7.1 2023-11-18 15:42:00
1 2019-04-12 10:00:00 Ts debe ser mayor o igual a Td Ts=7.5 - Td=7.6 2023-11-18 15:42:00
1 2019-04-12 12:00:00 Ts debe ser mayor o igual a Td Ts=7.1 - Td=7.6 2023-11-18 15:42:00
1 2019-04-12 13:00:00 Ts debe ser mayor o igual a Td Ts=7.7 - Td=8.5 2023-11-18 15:42:00
1 2019-04-12 14:00:00 Ts debe ser mayor o igual a Td Ts=8.6 - Td=10.2 2023-11-18 15:42:00
1 2019-04-12 15:00:00 Ts debe ser mayor o igual a Td Ts=10.5 - Td=11.4 2023-11-18 15:42:00
1 2019-04-14 09:00:00 Ts debe ser mayor o igual a Td Ts=2.6 - Td=5.0 2023-11-18 15:42:00
1 2019-04-14 10:00:00 Ts debe ser mayor o igual a Td Ts=5.1 - Td=7.2 2023-11-18 15:42:00
1 2019-04-14 12:00:00 Ts debe ser mayor o igual a Td Ts=6.0 - Td=8.1 2023-11-18 15:42:00
1 2019-04-14 13:00:00 Ts debe ser mayor o igual a Td Ts=8.2 - Td=10.4 2023-11-18 15:42:00
1 2019-04-15 12:00:00 Ts debe ser mayor o igual a Td Ts=2.3 - Td=6.2 2023-11-18 15:42:00
1 2019-04-15 13:00:00 Ts debe ser mayor o igual a Td Ts=6.3 - Td=10.6 2023-11-18 15:42:00
1 2019-04-16 12:00:00 Ts debe ser mayor o igual a Td Ts=2.9 - Td=5.5 2023-11-18 15:42:00
1 2019-04-17 12:00:00 Ts debe ser mayor o igual a Td Ts=3.7 - Td=6.9 2023-11-18 15:42:00
1 2019-04-18 12:00:00 Ts debe ser mayor o igual a Td Ts=5.6 - Td=6.8 2023-11-18 15:42:00
1 2019-04-19 11:00:00 Ts debe ser mayor o igual a Td Ts=7.3 - Td=8.7 2023-11-18 15:42:00
1 2019-04-19 12:00:00 Ts debe ser mayor o igual a Td Ts=8.9 - Td=9.6 2023-11-18 15:42:00
1 2019-04-19 13:00:00 Ts debe ser mayor o igual a Td Ts=9.8 - Td=10.6 2023-11-18 15:42:00
1 2019-04-19 14:00:00 Ts debe ser mayor o igual a Td Ts=10.7 - Td=11.5 2023-11-18 15:42:00
1 2019-04-21 12:00:00 Ts debe ser mayor o igual a Td Ts=2.6 - Td=5.6 2023-11-18 15:42:00
1 2019-04-21 13:00:00 Ts debe ser mayor o igual a Td Ts=5.7 - Td=9.3 2023-11-18 15:42:00
1 2019-04-22 12:00:00 Ts debe ser mayor o igual a Td Ts=2.5 - Td=5.8 2023-11-18 15:42:00
1 2019-04-22 13:00:00 Ts debe ser mayor o igual a Td Ts=6.0 - Td=9.5 2023-11-18 15:42:00
1 2019-04-23 11:00:00 Ts debe ser mayor o igual a Td Ts=2.7 - Td=2.9 2023-11-18 15:42:00
1 2019-04-23 12:00:00 Ts debe ser mayor o igual a Td Ts=3.1 - Td=4.4 2023-11-18 15:42:00
1 2019-04-23 13:00:00 Ts debe ser mayor o igual a Td Ts=4.7 - Td=9.5 2023-11-18 15:42:00
1 2019-04-24 13:00:00 Ts debe ser mayor o igual a Td Ts=10.1 - Td=11.1 2023-11-18 15:42:00
1 2019-04-25 12:00:00 Ts debe ser mayor o igual a Td Ts=11.1 - Td=11.2 2023-11-18 15:42:00
1 2019-04-25 13:00:00 Ts debe ser mayor o igual a Td Ts=11.4 - Td=11.7 2023-11-18 15:42:00
1 2019-04-26 07:00:00 Ts debe ser mayor o igual a Td Ts=4.5 - Td=5.1 2023-11-18 15:42:00
1 2019-04-26 12:00:00 Ts debe ser mayor o igual a Td Ts=3.3 - Td=6.4 2023-11-18 15:42:00
1 2019-04-26 13:00:00 Ts debe ser mayor o igual a Td Ts=6.4 - Td=9.8 2023-11-18 15:42:00
1 2019-04-26 14:00:00 Ts debe ser mayor o igual a Td Ts=10.3 - Td=11.8 2023-11-18 15:42:00
1 2019-04-27 09:00:00 Ts debe ser mayor o igual a Td Ts=4.9 - Td=5.7 2023-11-18 15:42:00
1 2019-04-27 12:00:00 Ts debe ser mayor o igual a Td Ts=3.7 - Td=6.7 2023-11-18 15:42:00
1 2019-04-27 13:00:00 Ts debe ser mayor o igual a Td Ts=6.9 - Td=9.2 2023-11-18 15:42:00
1 2019-04-28 12:00:00 Ts debe ser mayor o igual a Td Ts=3.4 - Td=6.3 2023-11-18 15:42:00
1 2019-04-28 13:00:00 Ts debe ser mayor o igual a Td Ts=6.5 - Td=10.0 2023-11-18 15:42:00
1 2019-04-29 12:00:00 Ts debe ser mayor o igual a Td Ts=10.0 - Td=10.2 2023-11-18 15:42:00
1 2019-04-29 13:00:00 Ts debe ser mayor o igual a Td Ts=10.6 - Td=11.5 2023-11-18 15:42:00
1 2019-04-30 12:00:00 Ts debe ser mayor o igual a Td Ts=2.0 - Td=4.5 2023-11-18 15:42:00
1 2019-04-30 13:00:00 Ts debe ser mayor o igual a Td Ts=4.9 - Td=6.7 2023-11-18 15:42:00
1 2019-05-01 13:00:00 Ts debe ser mayor o igual a Td Ts=1.8 - Td=5.5 2023-11-18 15:42:00
1 2019-05-06 06:00:00 Ts debe ser mayor o igual a Td Ts=5.8 - Td=7.5 2023-11-18 15:42:00
1 2019-05-06 07:00:00 Ts debe ser mayor o igual a Td Ts=7.7 - Td=8.1 2023-11-18 15:42:00
1 2019-05-06 11:00:00 Ts debe ser mayor o igual a Td Ts=8.5 - Td=8.8 2023-11-18 15:42:00
1 2019-05-06 12:00:00 Ts debe ser mayor o igual a Td Ts=8.9 - Td=9.0 2023-11-18 15:42:00
1 2019-05-06 13:00:00 Ts debe ser mayor o igual a Td Ts=9.1 - Td=10.4 2023-11-18 15:42:00
1 2019-05-07 12:00:00 Ts debe ser mayor o igual a Td Ts=7.4 - Td=8.4 2023-11-18 15:42:00
1 2019-05-07 13:00:00 Ts debe ser mayor o igual a Td Ts=8.5 - Td=11.2 2023-11-18 15:42:00
1 2019-05-07 14:00:00 Ts debe ser mayor o igual a Td Ts=11.5 - Td=12.5 2023-11-18 15:42:00
1 2019-05-08 06:00:00 Ts debe ser mayor o igual a Td Ts=4.1 - Td=4.9 2023-11-18 15:42:00
1 2019-05-08 07:00:00 Ts debe ser mayor o igual a Td Ts=5.1 - Td=6.2 2023-11-18 15:42:00
1 2019-05-08 12:00:00 Ts debe ser mayor o igual a Td Ts=6.0 - Td=6.2 2023-11-18 15:42:00
1 2019-05-08 13:00:00 Ts debe ser mayor o igual a Td Ts=6.2 - Td=6.9 2023-11-18 15:42:00
1 2019-05-08 13:00:00 HR (Humedad Relativa) es igual a 100% y Ts <> Td 6.2 - 6.9 2023-11-18 15:42:00
1 2019-05-08 14:00:00 Ts debe ser mayor o igual a Td Ts=6.9 - Td=8.8 2023-11-18 15:42:00
1 2019-05-08 14:00:00 HR (Humedad Relativa) es igual a 100% y Ts <> Td 6.9 - 8.8 2023-11-18 15:42:00
1 2019-05-09 14:00:00 Ts debe ser mayor o igual a Td Ts=8.5 - Td=9.3 2023-11-18 15:42:00
1 2019-05-10 12:00:00 Ts debe ser mayor o igual a Td Ts=-0.8 - Td=1.8 2023-11-18 15:42:00
1 2019-05-10 13:00:00 Ts debe ser mayor o igual a Td Ts=1.8 - Td=3.5 2023-11-18 15:42:00
1 2019-05-10 14:00:00 Ts debe ser mayor o igual a Td Ts=3.5 - Td=7.1 2023-11-18 15:42:00
1 2019-05-13 09:00:00 Ts debe ser mayor o igual a Td Ts=1.2 - Td=1.5 2023-11-18 15:42:00
1 2019-05-13 12:00:00 Ts debe ser mayor o igual a Td Ts=0.4 - Td=3.2 2023-11-18 15:42:00
1 2019-05-13 13:00:00 Ts debe ser mayor o igual a Td Ts=3.4 - Td=7.0 2023-11-18 15:42:00
1 2019-05-14 13:00:00 Ts debe ser mayor o igual a Td Ts=2.0 - Td=6.6 2023-11-18 15:42:00
1 2019-05-15 13:00:00 Ts debe ser mayor o igual a Td Ts=3.4 - Td=3.7 2023-11-18 15:42:00
1 2019-05-16 07:00:00 Ts debe ser mayor o igual a Td Ts=2.8 - Td=3.4 2023-11-18 15:42:00
1 2019-05-16 10:00:00 Ts debe ser mayor o igual a Td Ts=3.0 - Td=4.8 2023-11-18 15:42:00
1 2019-05-16 11:00:00 Ts debe ser mayor o igual a Td Ts=5.2 - Td=6.5 2023-11-18 15:42:00
1 2019-05-16 12:00:00 Ts debe ser mayor o igual a Td Ts=6.7 - Td=7.4 2023-11-18 15:42:00
1 2019-05-16 13:00:00 Ts debe ser mayor o igual a Td Ts=7.6 - Td=7.9 2023-11-18 15:42:00
1 2019-05-16 15:00:00 Ts debe ser mayor o igual a Td Ts=8.3 - Td=8.7 2023-11-18 15:42:00
1 2019-05-17 08:00:00 Ts debe ser mayor o igual a Td Ts=5.4 - Td=5.8 2023-11-18 15:42:00
1 2019-05-17 11:00:00 Ts debe ser mayor o igual a Td Ts=4.3 - Td=4.9 2023-11-18 15:42:00
1 2019-05-17 12:00:00 Ts debe ser mayor o igual a Td Ts=5.1 - Td=5.5 2023-11-18 15:42:00
1 2019-05-17 13:00:00 Ts debe ser mayor o igual a Td Ts=5.7 - Td=7.4 2023-11-18 15:42:00
1 2019-05-17 14:00:00 Ts debe ser mayor o igual a Td Ts=7.6 - Td=9.2 2023-11-18 15:42:00
1 2019-05-18 12:00:00 Ts debe ser mayor o igual a Td Ts=2.4 - Td=6.7 2023-11-18 15:42:00
1 2019-05-18 13:00:00 Ts debe ser mayor o igual a Td Ts=6.9 - Td=7.6 2023-11-18 15:42:00
1 2019-05-18 14:00:00 Ts debe ser mayor o igual a Td Ts=7.8 - Td=8.4 2023-11-18 15:42:00
1 2019-05-18 15:00:00 Ts debe ser mayor o igual a Td Ts=8.6 - Td=9.3 2023-11-18 15:42:00
1 2019-05-19 09:00:00 Ts debe ser mayor o igual a Td Ts=-0.9 - Td=1.1 2023-11-18 15:42:00
1 2019-05-19 10:00:00 Ts debe ser mayor o igual a Td Ts=1.3 - Td=3.0 2023-11-18 15:42:00
1 2019-05-19 11:00:00 Ts debe ser mayor o igual a Td Ts=3.3 - Td=4.0 2023-11-18 15:42:00
1 2019-05-19 12:00:00 Ts debe ser mayor o igual a Td Ts=4.1 - Td=4.2 2023-11-18 15:42:00
1 2019-05-19 13:00:00 Ts debe ser mayor o igual a Td Ts=4.3 - Td=5.3 2023-11-18 15:42:00
1 2019-05-19 14:00:00 Ts debe ser mayor o igual a Td Ts=5.4 - Td=6.0 2023-11-18 15:42:00
1 2019-05-19 15:00:00 Ts debe ser mayor o igual a Td Ts=6.1 - Td=7.3 2023-11-18 15:42:00
1 2019-05-20 10:00:00 Ts debe ser mayor o igual a Td Ts=-0.2 - Td=0.5 2023-11-18 15:42:00
1 2019-05-20 13:00:00 Ts debe ser mayor o igual a Td Ts=1.8 - Td=5.1 2023-11-18 15:42:00
1 2019-05-21 13:00:00 Ts debe ser mayor o igual a Td Ts=-0.9 - Td=3.5 2023-11-18 15:42:00
1 2019-05-21 14:00:00 Ts debe ser mayor o igual a Td Ts=3.6 - Td=5.2 2023-11-18 15:42:00
1 2019-05-22 08:00:00 Ts debe ser mayor o igual a Td Ts=-2.2 - Td=-2.0 2023-11-18 15:42:00
1 2019-05-22 13:00:00 Ts debe ser mayor o igual a Td Ts=-2.2 - Td=3.4 2023-11-18 15:42:00
1 2019-05-23 13:00:00 Ts debe ser mayor o igual a Td Ts=-2.7 - Td=0.2 2023-11-18 15:42:00
1 2019-05-27 12:00:00 Ts debe ser mayor o igual a Td Ts=-1.0 - Td=0.8 2023-11-18 15:42:00
1 2019-05-27 13:00:00 Ts debe ser mayor o igual a Td Ts=1.3 - Td=4.2 2023-11-18 15:42:00
1 2019-05-27 14:00:00 Ts debe ser mayor o igual a Td Ts=5.1 - Td=5.6 2023-11-18 15:42:00
1 2019-05-28 13:00:00 Ts debe ser mayor o igual a Td Ts=0.5 - Td=6.7 2023-11-18 15:42:00
1 2019-05-30 13:00:00 Ts debe ser mayor o igual a Td Ts=8.1 - Td=8.8 2023-11-18 15:42:00
1 2019-05-30 14:00:00 Ts debe ser mayor o igual a Td Ts=9.6 - Td=10.7 2023-11-18 15:42:00
1 2019-05-31 03:00:00 Ts debe ser mayor o igual a Td Ts=8.6 - Td=8.9 2023-11-18 15:42:00
1 2019-05-31 06:00:00 Ts debe ser mayor o igual a Td Ts=8.2 - Td=8.7 2023-11-18 15:42:00
1 2019-05-31 10:00:00 Ts debe ser mayor o igual a Td Ts=7.7 - Td=9.2 2023-11-18 15:42:00
1 2019-06-05 13:00:00 Ts debe ser mayor o igual a Td Ts=3.2 - Td=4.9 2023-11-18 15:42:00
1 2019-06-06 13:00:00 Ts debe ser mayor o igual a Td Ts=10.2 - Td=11.1 2023-11-18 15:42:00
1 2019-06-08 13:00:00 Ts debe ser mayor o igual a Td Ts=-2.3 - Td=2.5 2023-11-18 15:42:00
1 2019-06-08 14:00:00 Ts debe ser mayor o igual a Td Ts=2.9 - Td=4.6 2023-11-18 15:42:00
1 2019-06-09 13:00:00 Ts debe ser mayor o igual a Td Ts=-2.0 - Td=1.2 2023-11-18 15:43:00
1 2019-06-12 10:00:00 Ts debe ser mayor o igual a Td Ts=-0.8 - Td=0.1 2023-11-18 15:43:00
1 2019-06-12 12:00:00 Ts debe ser mayor o igual a Td Ts=0.1 - Td=0.7 2023-11-18 15:43:00
1 2019-06-12 13:00:00 Ts debe ser mayor o igual a Td Ts=0.9 - Td=5.5 2023-11-18 15:43:00
1 2019-06-12 14:00:00 Ts debe ser mayor o igual a Td Ts=5.7 - Td=7.6 2023-11-18 15:43:00
1 2019-06-13 13:00:00 Ts debe ser mayor o igual a Td Ts=5.1 - Td=5.4 2023-11-18 15:43:00
1 2019-06-13 14:00:00 Ts debe ser mayor o igual a Td Ts=6.0 - Td=6.4 2023-11-18 15:43:00
1 2019-06-14 09:00:00 Ts debe ser mayor o igual a Td Ts=2.7 - Td=2.8 2023-11-18 15:43:00
1 2019-06-14 11:00:00 Ts debe ser mayor o igual a Td Ts=2.2 - Td=4.6 2023-11-18 15:43:00
1 2019-06-14 13:00:00 Ts debe ser mayor o igual a Td Ts=6.1 - Td=6.3 2023-11-18 15:43:00
1 2019-06-15 10:00:00 Ts debe ser mayor o igual a Td Ts=5.1 - Td=5.2 2023-11-18 15:43:00
1 2019-06-15 13:00:00 Ts debe ser mayor o igual a Td Ts=5.0 - Td=5.2 2023-11-18 15:43:00
1 2019-06-15 14:00:00 Ts debe ser mayor o igual a Td Ts=5.3 - Td=5.6 2023-11-18 15:43:00
1 2019-06-15 15:00:00 Ts debe ser mayor o igual a Td Ts=5.6 - Td=8.1 2023-11-18 15:43:00
1 2019-06-16 13:00:00 Ts debe ser mayor o igual a Td Ts=0.5 - Td=4.9 2023-11-18 15:43:00
1 2019-06-16 14:00:00 Ts debe ser mayor o igual a Td Ts=5.1 - Td=5.7 2023-11-18 15:43:00
1 2019-06-17 09:00:00 Ts debe ser mayor o igual a Td Ts=-0.4 - Td=-0.1 2023-11-18 15:43:00
1 2019-06-17 11:00:00 Ts debe ser mayor o igual a Td Ts=0.1 - Td=0.3 2023-11-18 15:43:00
1 2019-06-17 12:00:00 Ts debe ser mayor o igual a Td Ts=0.4 - Td=0.8 2023-11-18 15:43:00
1 2019-06-17 13:00:00 Ts debe ser mayor o igual a Td Ts=0.8 - Td=2.2 2023-11-18 15:43:00
1 2019-06-17 14:00:00 Ts debe ser mayor o igual a Td Ts=2.3 - Td=5.2 2023-11-18 15:43:00
1 2019-06-17 15:00:00 Ts debe ser mayor o igual a Td Ts=5.5 - Td=6.6 2023-11-18 15:43:00
1 2019-06-18 08:00:00 Ts debe ser mayor o igual a Td Ts=2.5 - Td=2.6 2023-11-18 15:43:00
1 2019-06-18 12:00:00 Ts debe ser mayor o igual a Td Ts=-0.5 - Td=0.2 2023-11-18 15:43:00
1 2019-06-18 13:00:00 Ts debe ser mayor o igual a Td Ts=0.3 - Td=3.4 2023-11-18 15:43:00
1 2019-06-18 14:00:00 Ts debe ser mayor o igual a Td Ts=3.4 - Td=6.1 2023-11-18 15:43:00
1 2019-06-18 14:00:00 HR (Humedad Relativa) es igual a 100% y Ts <> Td 3.4 - 6.1 2023-11-18 15:43:00
1 2019-06-18 15:00:00 Ts debe ser mayor o igual a Td Ts=6.2 - Td=6.4 2023-11-18 15:43:00
1 2019-06-19 04:00:00 Ts debe ser mayor o igual a Td Ts=1.1 - Td=1.3 2023-11-18 15:43:00
1 2019-06-19 08:00:00 Ts debe ser mayor o igual a Td Ts=0.0 - Td=0.2 2023-11-18 15:43:00
1 2019-06-19 13:00:00 Ts debe ser mayor o igual a Td Ts=1.0 - Td=2.7 2023-11-18 15:43:00
1 2019-06-19 14:00:00 Ts debe ser mayor o igual a Td Ts=3.9 - Td=4.3 2023-11-18 15:43:00
1 2019-06-21 05:00:00 Ts debe ser mayor o igual a Td Ts=3.6 - Td=4.6 2023-11-18 15:43:00
1 2019-06-21 06:00:00 Ts debe ser mayor o igual a Td Ts=4.9 - Td=6.0 2023-11-18 15:43:00
1 2019-06-21 09:00:00 Ts debe ser mayor o igual a Td Ts=6.4 - Td=6.7 2023-11-18 15:43:00
1 2019-06-21 11:00:00 Ts debe ser mayor o igual a Td Ts=6.9 - Td=7.1 2023-11-18 15:43:00
1 2019-06-22 05:00:00 Ts debe ser mayor o igual a Td Ts=2.0 - Td=3.0 2023-11-18 15:43:00
1 2019-06-22 07:00:00 Ts debe ser mayor o igual a Td Ts=3.2 - Td=3.7 2023-11-18 15:43:00
1 2019-06-22 10:00:00 Ts debe ser mayor o igual a Td Ts=1.5 - Td=2.1 2023-11-18 15:43:00
1 2019-06-22 13:00:00 Ts debe ser mayor o igual a Td Ts=0.3 - Td=3.3 2023-11-18 15:43:00
1 2019-06-22 14:00:00 Ts debe ser mayor o igual a Td Ts=3.4 - Td=7.7 2023-11-18 15:43:00
1 2019-06-22 15:00:00 Ts debe ser mayor o igual a Td Ts=7.8 - Td=8.4 2023-11-18 15:43:00
1 2019-06-25 05:00:00 Ts debe ser mayor o igual a Td Ts=-0.9 - Td=-0.8 2023-11-18 15:43:00
1 2019-06-25 08:00:00 Ts debe ser mayor o igual a Td Ts=-2.4 - Td=-2.0 2023-11-18 15:43:00
1 2019-06-25 13:00:00 Ts debe ser mayor o igual a Td Ts=-3.9 - Td=-1.3 2023-11-18 15:43:00
1 2019-06-25 14:00:00 Ts debe ser mayor o igual a Td Ts=-1.2 - Td=1.2 2023-11-18 15:43:00
1 2019-06-25 15:00:00 Ts debe ser mayor o igual a Td Ts=1.6 - Td=2.6 2023-11-18 15:43:00
1 2019-06-26 03:00:00 Ts debe ser mayor o igual a Td Ts=-0.5 - Td=0.2 2023-11-18 15:43:00
1 2019-06-30 03:00:00 Ts debe ser mayor o igual a Td Ts=3.9 - Td=6.0 2023-11-18 15:43:00
1 2019-06-30 06:00:00 Ts debe ser mayor o igual a Td Ts=3.8 - Td=4.6 2023-11-18 15:43:00
1 2019-06-30 07:00:00 Ts debe ser mayor o igual a Td Ts=4.7 - Td=4.9 2023-11-18 15:43:00
1 2019-06-30 09:00:00 HR (Humedad Relativa) es igual a 100% y Ts <> Td 3.9 - 3.1 2023-11-18 15:43:00
1 2019-06-30 10:00:00 Ts debe ser mayor o igual a Td Ts=3.1 - Td=3.4 2023-11-18 15:43:00
1 2019-06-30 10:00:00 HR (Humedad Relativa) es igual a 100% y Ts <> Td 3.1 - 3.4 2023-11-18 15:43:00
1 2019-06-30 11:00:00 Ts debe ser mayor o igual a Td Ts=3.4 - Td=4.3 2023-11-18 15:43:00
1 2019-06-30 11:00:00 HR (Humedad Relativa) es igual a 100% y Ts <> Td 3.4 - 4.3 2023-11-18 15:43:00
1 2019-06-30 12:00:00 HR (Humedad Relativa) es igual a 100% y Ts <> Td 4.3 - 3.8 2023-11-18 15:43:00
1 2019-06-30 13:00:00 Ts debe ser mayor o igual a Td Ts=3.8 - Td=5.5 2023-11-18 15:43:00
1 2019-06-30 13:00:00 HR (Humedad Relativa) es igual a 100% y Ts <> Td 3.8 - 5.5 2023-11-18 15:43:00
1 2019-06-30 14:00:00 Ts debe ser mayor o igual a Td Ts=5.5 - Td=6.0 2023-11-18 15:43:00
1 2019-06-30 14:00:00 HR (Humedad Relativa) es igual a 100% y Ts <> Td 5.5 - 6.0 2023-11-18 15:43:00
1 2019-07-01 03:00:00 Ts debe ser mayor o igual a Td Ts=0.7 - Td=2.4 2023-11-18 15:43:00
1 2019-07-01 07:00:00 Ts debe ser mayor o igual a Td Ts=-0.5 - Td=1.0 2023-11-18 15:43:00
1 2019-07-01 07:00:00 HR (Humedad Relativa) es igual a 100% y Ts <> Td -0.5 - 1.0 2023-11-18 15:43:00
1 2019-07-01 08:00:00 Ts debe ser mayor o igual a Td Ts=1.0 - Td=1.2 2023-11-18 15:43:00
1 2019-07-01 08:00:00 HR (Humedad Relativa) es igual a 100% y Ts <> Td 1.0 - 1.2 2023-11-18 15:43:00
1 2019-07-01 09:00:00 HR (Humedad Relativa) es igual a 100% y Ts <> Td 1.2 - 0.1 2023-11-18 15:43:00
1 2019-07-01 10:00:00 HR (Humedad Relativa) es igual a 100% y Ts <> Td 0.1 - -0.6 2023-11-18 15:43:00
1 2019-07-01 11:00:00 Ts debe ser mayor o igual a Td Ts=-0.6 - Td=-0.5 2023-11-18 15:43:00
1 2019-07-01 12:00:00 HR (Humedad Relativa) es igual a 100% y Ts <> Td -0.5 - -1.4 2023-11-18 15:43:00
1 2019-07-01 14:00:00 Ts debe ser mayor o igual a Td Ts=-1.5 - Td=1.4 2023-11-18 15:43:00
1 2019-07-01 14:00:00 HR (Humedad Relativa) es igual a 100% y Ts <> Td -1.5 - 1.4 2023-11-18 15:43:00
1 2019-07-01 15:00:00 Ts debe ser mayor o igual a Td Ts=1.4 - Td=4.4 2023-11-18 15:43:00
1 2019-07-01 15:00:00 HR (Humedad Relativa) es igual a 100% y Ts <> Td 1.4 - 4.4 2023-11-18 15:43:00
1 2019-07-01 16:00:00 Ts debe ser mayor o igual a Td Ts=4.4 - Td=8.1 2023-11-18 15:43:00
1 2019-07-01 16:00:00 HR (Humedad Relativa) es igual a 100% y Ts <> Td 4.4 - 8.1 2023-11-18 15:43:00
1 2019-07-02 10:00:00 Ts debe ser mayor o igual a Td Ts=-2.6 - Td=-1.4 2023-11-18 15:43:00
1 2019-07-02 11:00:00 Ts debe ser mayor o igual a Td Ts=-1.2 - Td=-0.4 2023-11-18 15:43:00
1 2019-07-02 12:00:00 Ts debe ser mayor o igual a Td Ts=-0.2 - Td=0.1 2023-11-18 15:43:00
1 2019-07-02 13:00:00 Ts debe ser mayor o igual a Td Ts=0.3 - Td=1.3 2023-11-18 15:43:00
1 2019-07-02 14:00:00 Ts debe ser mayor o igual a Td Ts=1.5 - Td=3.7 2023-11-18 15:43:00
1 2019-07-03 09:00:00 Ts debe ser mayor o igual a Td Ts=-0.6 - Td=0.1 2023-11-18 15:43:00
1 2019-07-03 10:00:00 Ts debe ser mayor o igual a Td Ts=0.4 - Td=1.5 2023-11-18 15:43:00
1 2019-07-03 13:00:00 Ts debe ser mayor o igual a Td Ts=-0.1 - Td=1.0 2023-11-18 15:43:00
1 2019-07-03 13:00:00 HR (Humedad Relativa) es igual a 100% y Ts <> Td -0.1 - 1.0 2023-11-18 15:43:00
1 2019-07-03 14:00:00 Ts debe ser mayor o igual a Td Ts=1.0 - Td=3.6 2023-11-18 15:43:00
1 2019-07-03 14:00:00 HR (Humedad Relativa) es igual a 100% y Ts <> Td 1.0 - 3.6 2023-11-18 15:43:00
1 2019-07-03 15:00:00 Ts debe ser mayor o igual a Td Ts=3.6 - Td=5.6 2023-11-18 15:43:00
1 2019-07-03 15:00:00 HR (Humedad Relativa) es igual a 100% y Ts <> Td 3.6 - 5.6 2023-11-18 15:43:00
1 2019-07-03 16:00:00 Ts debe ser mayor o igual a Td Ts=5.6 - Td=6.0 2023-11-18 15:43:00
1 2019-07-04 09:00:00 Ts debe ser mayor o igual a Td Ts=-0.5 - Td=0.7 2023-11-18 15:43:00
1 2019-07-04 10:00:00 Ts debe ser mayor o igual a Td Ts=0.9 - Td=1.9 2023-11-18 15:43:00
1 2019-07-04 12:00:00 Ts debe ser mayor o igual a Td Ts=1.7 - Td=2.9 2023-11-18 15:43:00
1 2019-07-04 13:00:00 Ts debe ser mayor o igual a Td Ts=2.9 - Td=4.8 2023-11-18 15:43:00
1 2019-07-04 14:00:00 Ts debe ser mayor o igual a Td Ts=4.9 - Td=5.0 2023-11-18 15:43:00
1 2019-07-04 15:00:00 Ts debe ser mayor o igual a Td Ts=5.2 - Td=6.0 2023-11-18 15:43:00
1 2019-07-05 05:00:00 Ts debe ser mayor o igual a Td Ts=-0.5 - Td=-0.1 2023-11-18 15:43:00
1 2019-07-05 11:00:00 Ts debe ser mayor o igual a Td Ts=-1.8 - Td=-1.4 2023-11-18 15:43:00
1 2019-07-05 13:00:00 Ts debe ser mayor o igual a Td Ts=-1.8 - Td=3.0 2023-11-18 15:43:00
1 2019-07-05 14:00:00 Ts debe ser mayor o igual a Td Ts=3.0 - Td=7.1 2023-11-18 15:43:00
1 2019-07-06 13:00:00 Ts debe ser mayor o igual a Td Ts=2.4 - Td=3.9 2023-11-18 15:43:00
1 2019-07-07 05:00:00 Ts debe ser mayor o igual a Td Ts=4.1 - Td=4.5 2023-11-18 15:43:00
1 2019-07-07 06:00:00 Ts debe ser mayor o igual a Td Ts=4.6 - Td=5.3 2023-11-18 15:43:00
1 2019-07-07 08:00:00 Ts debe ser mayor o igual a Td Ts=4.3 - Td=6.3 2023-11-18 15:43:00
1 2019-07-07 09:00:00 Ts debe ser mayor o igual a Td Ts=6.3 - Td=7.4 2023-11-18 15:43:00
1 2019-07-07 11:00:00 Ts debe ser mayor o igual a Td Ts=7.1 - Td=7.3 2023-11-18 15:43:00
1 2019-07-07 14:00:00 Ts debe ser mayor o igual a Td Ts=7.2 - Td=7.9 2023-11-18 15:43:00
1 2019-07-07 15:00:00 Ts debe ser mayor o igual a Td Ts=8.0 - Td=8.8 2023-11-18 15:43:00
1 2019-07-07 16:00:00 Ts debe ser mayor o igual a Td Ts=9.0 - Td=9.1 2023-11-18 15:43:00
1 2019-07-08 05:00:00 Ts debe ser mayor o igual a Td Ts=6.0 - Td=6.6 2023-11-18 15:43:00
1 2019-07-08 06:00:00 Ts debe ser mayor o igual a Td Ts=6.7 - Td=6.8 2023-11-18 15:43:00
1 2019-07-08 08:00:00 Ts debe ser mayor o igual a Td Ts=6.3 - Td=6.9 2023-11-18 15:43:00
1 2019-07-08 10:00:00 HR (Humedad Relativa) es igual a 100% y Ts <> Td 6.8 - 5.9 2023-11-18 15:43:00
1 2019-07-08 11:00:00 Ts debe ser mayor o igual a Td Ts=5.9 - Td=6.6 2023-11-18 15:43:00
1 2019-07-08 11:00:00 HR (Humedad Relativa) es igual a 100% y Ts <> Td 5.9 - 6.6 2023-11-18 15:43:00
1 2019-07-08 12:00:00 Ts debe ser mayor o igual a Td Ts=6.6 - Td=7.5 2023-11-18 15:43:00
1 2019-07-08 12:00:00 HR (Humedad Relativa) es igual a 100% y Ts <> Td 6.6 - 7.5 2023-11-18 15:43:00
1 2019-07-08 13:00:00 Ts debe ser mayor o igual a Td Ts=7.5 - Td=7.9 2023-11-18 15:43:00
1 2019-07-08 13:00:00 HR (Humedad Relativa) es igual a 100% y Ts <> Td 7.5 - 7.9 2023-11-18 15:43:00
1 2019-07-08 14:00:00 Ts debe ser mayor o igual a Td Ts=7.9 - Td=8.4 2023-11-18 15:43:00
1 2019-07-08 14:00:00 HR (Humedad Relativa) es igual a 100% y Ts <> Td 7.9 - 8.4 2023-11-18 15:43:00
1 2019-07-08 15:00:00 Ts debe ser mayor o igual a Td Ts=8.4 - Td=9.6 2023-11-18 15:43:00
1 2019-07-08 15:00:00 HR (Humedad Relativa) es igual a 100% y Ts <> Td 8.4 - 9.6 2023-11-18 15:43:00
1 2019-07-08 16:00:00 Ts debe ser mayor o igual a Td Ts=9.8 - Td=10.1 2023-11-18 15:43:00
1 2019-07-10 08:00:00 Ts debe ser mayor o igual a Td Ts=0.6 - Td=0.7 2023-11-18 15:43:00
1 2019-07-10 11:00:00 Ts debe ser mayor o igual a Td Ts=1.0 - Td=1.1 2023-11-18 15:43:00
1 2019-07-10 13:00:00 Ts debe ser mayor o igual a Td Ts=0.5 - Td=3.4 2023-11-18 15:43:00
1 2019-07-10 14:00:00 Ts debe ser mayor o igual a Td Ts=3.4 - Td=7.1 2023-11-18 15:43:00
1 2019-07-10 14:00:00 HR (Humedad Relativa) es igual a 100% y Ts <> Td 3.4 - 7.1 2023-11-18 15:43:00
1 2019-07-10 15:00:00 Ts debe ser mayor o igual a Td Ts=7.3 - Td=7.7 2023-11-18 15:43:00
1 2019-07-11 10:00:00 Ts debe ser mayor o igual a Td Ts=1.7 - Td=2.0 2023-11-18 15:43:00
1 2019-07-11 11:00:00 Ts debe ser mayor o igual a Td Ts=2.1 - Td=2.4 2023-11-18 15:43:00
1 2019-07-11 12:00:00 Ts debe ser mayor o igual a Td Ts=2.5 - Td=2.7 2023-11-18 15:43:00
1 2019-07-11 13:00:00 Ts debe ser mayor o igual a Td Ts=2.7 - Td=4.0 2023-11-18 15:43:00
1 2019-07-11 14:00:00 Ts debe ser mayor o igual a Td Ts=4.0 - Td=6.0 2023-11-18 15:43:00
1 2019-07-11 15:00:00 Ts debe ser mayor o igual a Td Ts=6.0 - Td=7.7 2023-11-18 15:43:00
1 2019-07-12 06:00:00 Ts debe ser mayor o igual a Td Ts=0.1 - Td=0.7 2023-11-18 15:43:00
1 2019-07-12 14:00:00 Ts debe ser mayor o igual a Td Ts=1.9 - Td=4.7 2023-11-18 15:43:00
1 2019-07-12 14:00:00 HR (Humedad Relativa) es igual a 100% y Ts <> Td 1.9 - 4.7 2023-11-18 15:43:00
1 2019-07-12 15:00:00 Ts debe ser mayor o igual a Td Ts=4.7 - Td=8.3 2023-11-18 15:43:00
1 2019-07-12 15:00:00 HR (Humedad Relativa) es igual a 100% y Ts <> Td 4.7 - 8.3 2023-11-18 15:43:00
1 2019-07-13 05:00:00 Ts debe ser mayor o igual a Td Ts=0.0 - Td=0.2 2023-11-18 15:43:00
1 2019-07-13 12:00:00 Ts debe ser mayor o igual a Td Ts=-2.1 - Td=-1.2 2023-11-18 15:43:00
1 2019-07-13 13:00:00 Ts debe ser mayor o igual a Td Ts=-1.1 - Td=2.3 2023-11-18 15:43:00
1 2019-07-13 14:00:00 Ts debe ser mayor o igual a Td Ts=2.4 - Td=6.0 2023-11-18 15:43:00
1 2019-07-13 15:00:00 Ts debe ser mayor o igual a Td Ts=6.3 - Td=6.6 2023-11-18 15:43:00
1 2019-07-14 08:00:00 Ts debe ser mayor o igual a Td Ts=-0.8 - Td=-0.3 2023-11-18 15:43:00
1 2019-07-14 10:00:00 Ts debe ser mayor o igual a Td Ts=0.5 - Td=1.6 2023-11-18 15:43:00
1 2019-07-14 13:00:00 Ts debe ser mayor o igual a Td Ts=0.4 - Td=3.1 2023-11-18 15:43:00
1 2019-07-14 14:00:00 Ts debe ser mayor o igual a Td Ts=3.5 - Td=4.0 2023-11-18 15:43:00
1 2019-07-15 05:00:00 Ts debe ser mayor o igual a Td Ts=0.1 - Td=0.7 2023-11-18 15:43:00
1 2019-07-15 08:00:00 Ts debe ser mayor o igual a Td Ts=-0.7 - Td=-0.3 2023-11-18 15:43:00
1 2019-07-15 13:00:00 Ts debe ser mayor o igual a Td Ts=-2.0 - Td=3.0 2023-11-18 15:43:00
1 2019-07-15 14:00:00 Ts debe ser mayor o igual a Td Ts=3.1 - Td=5.6 2023-11-18 15:43:00
1 2019-07-16 11:00:00 Ts debe ser mayor o igual a Td Ts=-0.9 - Td=-0.6 2023-11-18 15:43:00
1 2019-07-16 13:00:00 Ts debe ser mayor o igual a Td Ts=-1.2 - Td=4.6 2023-11-18 15:43:00
1 2019-07-17 08:00:00 Ts debe ser mayor o igual a Td Ts=0.4 - Td=1.2 2023-11-18 15:43:00
1 2019-07-17 09:00:00 Ts debe ser mayor o igual a Td Ts=1.8 - Td=2.6 2023-11-18 15:43:00
1 2019-07-17 10:00:00 Ts debe ser mayor o igual a Td Ts=3.1 - Td=3.3 2023-11-18 15:43:00
1 2019-07-18 11:00:00 Ts debe ser mayor o igual a Td Ts=6.8 - Td=6.9 2023-11-18 15:43:00
1 2019-07-18 13:00:00 Ts debe ser mayor o igual a Td Ts=6.9 - Td=7.4 2023-11-18 15:43:00
1 2019-07-18 16:00:00 Ts debe ser mayor o igual a Td Ts=8.1 - Td=9.8 2023-11-18 15:43:00
1 2019-07-19 06:00:00 Ts debe ser mayor o igual a Td Ts=1.3 - Td=1.9 2023-11-18 15:43:00
1 2019-07-19 09:00:00 Ts debe ser mayor o igual a Td Ts=1.3 - Td=2.3 2023-11-18 15:43:00
1 2019-07-19 12:00:00 Ts debe ser mayor o igual a Td Ts=1.7 - Td=2.4 2023-11-18 15:43:00
1 2019-07-19 13:00:00 Ts debe ser mayor o igual a Td Ts=2.6 - Td=3.9 2023-11-18 15:43:00
1 2019-07-19 14:00:00 Ts debe ser mayor o igual a Td Ts=4.1 - Td=5.8 2023-11-18 15:43:00
1 2019-07-19 15:00:00 Ts debe ser mayor o igual a Td Ts=6.1 - Td=6.5 2023-11-18 15:43:00
1 2019-07-22 02:00:00 Ts debe ser mayor o igual a Td Ts=0.6 - Td=0.8 2023-11-18 15:43:00
1 2019-07-22 05:00:00 Ts debe ser mayor o igual a Td Ts=-1.0 - Td=-0.9 2023-11-18 15:43:00
1 2019-07-22 08:00:00 Ts debe ser mayor o igual a Td Ts=-2.2 - Td=-1.9 2023-11-18 15:43:00
1 2019-07-22 11:00:00 HR (Humedad Relativa) es igual a 100% y Ts <> Td -2.3 - -2.8 2023-11-18 15:43:00
1 2019-07-22 13:00:00 Ts debe ser mayor o igual a Td Ts=-3.1 - Td=0.7 2023-11-18 15:43:00
1 2019-07-22 14:00:00 Ts debe ser mayor o igual a Td Ts=0.7 - Td=3.1 2023-11-18 15:43:00
1 2019-07-22 14:00:00 HR (Humedad Relativa) es igual a 100% y Ts <> Td 0.7 - 3.1 2023-11-18 15:43:00
1 2019-07-22 15:00:00 Ts debe ser mayor o igual a Td Ts=3.3 - Td=4.0 2023-11-18 15:43:00
1 2019-07-23 09:00:00 Ts debe ser mayor o igual a Td Ts=-3.0 - Td=-2.5 2023-11-18 15:43:00
1 2019-07-23 12:00:00 Ts debe ser mayor o igual a Td Ts=-3.7 - Td=-3.4 2023-11-18 15:43:00
1 2019-07-23 13:00:00 Ts debe ser mayor o igual a Td Ts=-3.2 - Td=0.8 2023-11-18 15:43:00
1 2019-07-23 14:00:00 Ts debe ser mayor o igual a Td Ts=0.9 - Td=2.9 2023-11-18 15:43:00
1 2019-07-23 15:00:00 Ts debe ser mayor o igual a Td Ts=3.2 - Td=3.4 2023-11-18 15:43:00
1 2019-07-24 13:00:00 Ts debe ser mayor o igual a Td Ts=-3.7 - Td=1.4 2023-11-18 15:43:00
1 2019-07-24 14:00:00 Ts debe ser mayor o igual a Td Ts=1.6 - Td=4.4 2023-11-18 15:43:00
1 2019-07-25 07:00:00 Ts debe ser mayor o igual a Td Ts=-0.3 - Td=1.5 2023-11-18 15:43:00
1 2019-07-25 08:00:00 Ts debe ser mayor o igual a Td Ts=1.8 - Td=2.5 2023-11-18 15:43:00
1 2019-07-25 11:00:00 Ts debe ser mayor o igual a Td Ts=0.4 - Td=0.5 2023-11-18 15:43:00
1 2019-07-25 12:00:00 Ts debe ser mayor o igual a Td Ts=0.6 - Td=2.4 2023-11-18 15:43:00
1 2019-07-25 13:00:00 Ts debe ser mayor o igual a Td Ts=2.5 - Td=5.0 2023-11-18 15:43:00
1 2019-07-25 14:00:00 Ts debe ser mayor o igual a Td Ts=5.1 - Td=5.9 2023-11-18 15:43:00
1 2019-07-26 06:00:00 Ts debe ser mayor o igual a Td Ts=1.0 - Td=1.9 2023-11-18 15:43:00
1 2019-07-26 08:00:00 Ts debe ser mayor o igual a Td Ts=1.6 - Td=2.3 2023-11-18 15:43:00
1 2019-07-26 09:00:00 Ts debe ser mayor o igual a Td Ts=2.6 - Td=2.8 2023-11-18 15:43:00
1 2019-07-26 11:00:00 Ts debe ser mayor o igual a Td Ts=2.5 - Td=2.8 2023-11-18 15:43:00
1 2019-07-26 12:00:00 Ts debe ser mayor o igual a Td Ts=2.9 - Td=3.1 2023-11-18 15:43:00
1 2019-07-26 13:00:00 Ts debe ser mayor o igual a Td Ts=3.2 - Td=5.0 2023-11-18 15:43:00
1 2019-07-26 14:00:00 Ts debe ser mayor o igual a Td Ts=5.2 - Td=6.7 2023-11-18 15:43:00
1 2019-07-27 06:00:00 Ts debe ser mayor o igual a Td Ts=1.0 - Td=2.3 2023-11-18 15:43:00
1 2019-07-27 07:00:00 Ts debe ser mayor o igual a Td Ts=2.6 - Td=2.9 2023-11-18 15:43:00
1 2019-07-27 09:00:00 Ts debe ser mayor o igual a Td Ts=3.4 - Td=3.7 2023-11-18 15:43:00
1 2019-07-27 12:00:00 Ts debe ser mayor o igual a Td Ts=3.3 - Td=3.7 2023-11-18 15:43:00
1 2019-07-27 13:00:00 Ts debe ser mayor o igual a Td Ts=3.9 - Td=5.6 2023-11-18 15:43:00
1 2019-07-27 14:00:00 Ts debe ser mayor o igual a Td Ts=5.8 - Td=6.8 2023-11-18 15:43:00
1 2019-07-28 11:00:00 Ts debe ser mayor o igual a Td Ts=0.7 - Td=1.1 2023-11-18 15:43:00
1 2019-07-28 13:00:00 Ts debe ser mayor o igual a Td Ts=1.0 - Td=4.8 2023-11-18 15:43:00
1 2019-07-28 14:00:00 Ts debe ser mayor o igual a Td Ts=5.5 - Td=7.1 2023-11-18 15:43:00
1 2019-07-29 13:00:00 Ts debe ser mayor o igual a Td Ts=8.1 - Td=9.4 2023-11-18 15:43:00
1 2019-07-29 14:00:00 Ts debe ser mayor o igual a Td Ts=9.5 - Td=11.4 2023-11-18 15:43:00
1 2019-07-30 13:00:00 Ts debe ser mayor o igual a Td Ts=8.6 - Td=11.2 2023-11-18 15:43:00
1 2019-07-31 09:00:00 Ts debe ser mayor o igual a Td Ts=6.2 - Td=6.5 2023-11-18 15:43:00
1 2019-07-31 12:00:00 Ts debe ser mayor o igual a Td Ts=5.7 - Td=5.9 2023-11-18 15:43:00
1 2019-07-31 13:00:00 Ts debe ser mayor o igual a Td Ts=6.1 - Td=8.9 2023-11-18 15:43:00
1 2019-07-31 14:00:00 Ts debe ser mayor o igual a Td Ts=9.1 - Td=9.6 2023-11-18 15:43:00
1 2019-07-31 15:00:00 Ts debe ser mayor o igual a Td Ts=9.8 - Td=10.1 2023-11-18 15:43:00
1 2019-07-31 16:00:00 Ts debe ser mayor o igual a Td Ts=10.3 - Td=10.8 2023-11-18 15:43:00
1 2019-07-31 17:00:00 Ts debe ser mayor o igual a Td Ts=11.1 - Td=11.3 2023-11-18 15:43:00
1 2019-08-01 13:00:00 Ts debe ser mayor o igual a Td Ts=-0.8 - Td=2.8 2023-11-18 15:43:00
1 2019-08-01 14:00:00 Ts debe ser mayor o igual a Td Ts=3.0 - Td=5.6 2023-11-18 15:43:00
1 2019-08-02 07:00:00 Ts debe ser mayor o igual a Td Ts=-1.1 - Td=-0.2 2023-11-18 15:43:00
1 2019-08-02 12:00:00 Ts debe ser mayor o igual a Td Ts=-1.9 - Td=-1.0 2023-11-18 15:43:00
1 2019-08-02 13:00:00 Ts debe ser mayor o igual a Td Ts=-0.9 - Td=0.2 2023-11-18 15:43:00
1 2019-08-02 14:00:00 Ts debe ser mayor o igual a Td Ts=0.3 - Td=1.2 2023-11-18 15:43:00
1 2019-08-02 15:00:00 Ts debe ser mayor o igual a Td Ts=1.3 - Td=4.1 2023-11-18 15:43:00
1 2019-08-02 16:00:00 Ts debe ser mayor o igual a Td Ts=4.2 - Td=5.7 2023-11-18 15:43:00
1 2019-08-03 13:00:00 Ts debe ser mayor o igual a Td Ts=1.0 - Td=3.3 2023-11-18 15:43:00
1 2019-08-05 13:00:00 Ts debe ser mayor o igual a Td Ts=1.8 - Td=4.3 2023-11-18 15:43:00
1 2019-08-06 04:00:00 Ts debe ser mayor o igual a Td Ts=4.5 - Td=6.3 2023-11-18 15:43:00
1 2019-08-06 05:00:00 Ts debe ser mayor o igual a Td Ts=6.8 - Td=7.0 2023-11-18 15:43:00
1 2019-08-06 13:00:00 Ts debe ser mayor o igual a Td Ts=6.4 - Td=7.3 2023-11-18 15:43:00
1 2019-08-06 14:00:00 Ts debe ser mayor o igual a Td Ts=7.6 - Td=8.0 2023-11-18 15:43:00
1 2019-08-07 12:00:00 Ts debe ser mayor o igual a Td Ts=-0.1 - Td=0.8 2023-11-18 15:43:00
1 2019-08-07 13:00:00 Ts debe ser mayor o igual a Td Ts=1.2 - Td=1.6 2023-11-18 15:43:00
1 2019-08-07 14:00:00 Ts debe ser mayor o igual a Td Ts=1.9 - Td=3.5 2023-11-18 15:43:00
1 2019-08-07 15:00:00 Ts debe ser mayor o igual a Td Ts=3.6 - Td=4.3 2023-11-18 15:43:00
1 2019-08-07 16:00:00 Ts debe ser mayor o igual a Td Ts=4.5 - Td=5.5 2023-11-18 15:43:00
1 2019-08-08 13:00:00 Ts debe ser mayor o igual a Td Ts=-1.0 - Td=2.1 2023-11-18 15:43:00
1 2019-08-11 12:00:00 Ts debe ser mayor o igual a Td Ts=-0.9 - Td=-0.4 2023-11-18 15:43:00
1 2019-08-11 13:00:00 Ts debe ser mayor o igual a Td Ts=0.1 - Td=4.4 2023-11-18 15:43:00
1 2019-08-12 07:00:00 Ts debe ser mayor o igual a Td Ts=1.0 - Td=1.1 2023-11-18 15:43:00
1 2019-08-12 09:00:00 Ts debe ser mayor o igual a Td Ts=1.4 - Td=1.6 2023-11-18 15:43:00
1 2019-08-12 12:00:00 Ts debe ser mayor o igual a Td Ts=0.6 - Td=1.4 2023-11-18 15:43:00
1 2019-08-12 13:00:00 Ts debe ser mayor o igual a Td Ts=1.9 - Td=3.9 2023-11-18 15:43:00
1 2019-08-13 05:00:00 Ts debe ser mayor o igual a Td Ts=-0.3 - Td=0.1 2023-11-18 15:43:00
1 2019-08-13 10:00:00 Ts debe ser mayor o igual a Td Ts=0.1 - Td=0.3 2023-11-18 15:43:00
1 2019-08-13 13:00:00 Ts debe ser mayor o igual a Td Ts=1.6 - Td=3.0 2023-11-18 15:43:00
1 2019-08-15 08:00:00 Ts debe ser mayor o igual a Td Ts=1.9 - Td=2.4 2023-11-18 15:43:00
1 2019-08-15 10:00:00 Ts debe ser mayor o igual a Td Ts=2.9 - Td=3.7 2023-11-18 15:43:00
1 2019-08-15 12:00:00 Ts debe ser mayor o igual a Td Ts=4.4 - Td=4.8 2023-11-18 15:43:00
1 2019-08-15 13:00:00 Ts debe ser mayor o igual a Td Ts=5.0 - Td=5.8 2023-11-18 15:43:00
1 2019-08-15 14:00:00 Ts debe ser mayor o igual a Td Ts=5.9 - Td=6.8 2023-11-18 15:43:00
1 2019-08-15 15:00:00 Ts debe ser mayor o igual a Td Ts=6.8 - Td=7.8 2023-11-18 15:43:00
1 2019-08-15 16:00:00 Ts debe ser mayor o igual a Td Ts=8.0 - Td=8.6 2023-11-18 15:43:00
1 2019-08-16 01:00:00 Ts debe ser mayor o igual a Td Ts=6.9 - Td=7.8 2023-11-18 15:43:00
1 2019-08-17 04:00:00 Ts debe ser mayor o igual a Td Ts=4.0 - Td=5.3 2023-11-18 15:43:00
1 2019-08-17 12:00:00 Ts debe ser mayor o igual a Td Ts=5.4 - Td=5.5 2023-11-18 15:43:00
1 2019-08-18 05:00:00 Ts debe ser mayor o igual a Td Ts=5.3 - Td=5.8 2023-11-18 15:43:00
1 2019-08-18 12:00:00 Ts debe ser mayor o igual a Td Ts=6.0 - Td=6.1 2023-11-18 15:43:00
1 2019-08-18 13:00:00 Ts debe ser mayor o igual a Td Ts=6.4 - Td=7.5 2023-11-18 15:43:00
1 2019-08-19 13:00:00 Ts debe ser mayor o igual a Td Ts=7.2 - Td=7.5 2023-11-18 15:43:00
1 2019-08-19 14:00:00 Ts debe ser mayor o igual a Td Ts=8.1 - Td=8.3 2023-11-18 15:44:00
1 2019-08-22 10:00:00 Ts debe ser mayor o igual a Td Ts=2.0 - Td=3.6 2023-11-18 15:44:00
1 2019-08-22 12:00:00 Ts debe ser mayor o igual a Td Ts=3.3 - Td=4.3 2023-11-18 15:44:00
1 2019-08-22 13:00:00 Ts debe ser mayor o igual a Td Ts=4.3 - Td=8.3 2023-11-18 15:44:00
1 2019-08-22 13:00:00 HR (Humedad Relativa) es igual a 100% y Ts <> Td 4.3 - 8.3 2023-11-18 15:44:00
1 2019-08-22 14:00:00 Ts debe ser mayor o igual a Td Ts=8.3 - Td=11.7 2023-11-18 15:44:00
1 2019-08-22 14:00:00 HR (Humedad Relativa) es igual a 100% y Ts <> Td 8.3 - 11.7 2023-11-18 15:44:00
1 2019-08-23 12:00:00 Ts debe ser mayor o igual a Td Ts=5.0 - Td=5.7 2023-11-18 15:44:00
1 2019-08-23 13:00:00 Ts debe ser mayor o igual a Td Ts=7.4 - Td=7.7 2023-11-18 15:44:00
1 2019-08-27 12:00:00 Ts debe ser mayor o igual a Td Ts=4.0 - Td=7.7 2023-11-18 15:44:00
1 2019-08-28 12:00:00 Ts debe ser mayor o igual a Td Ts=7.3 - Td=8.3 2023-11-18 15:44:00
1 2019-08-29 12:00:00 Ts debe ser mayor o igual a Td Ts=7.1 - Td=8.1 2023-11-18 15:44:00
1 2019-08-29 13:00:00 Ts debe ser mayor o igual a Td Ts=8.5 - Td=10.0 2023-11-18 15:44:00
1 2019-08-29 14:00:00 Ts debe ser mayor o igual a Td Ts=10.5 - Td=11.1 2023-11-18 15:44:00
1 2019-08-30 12:00:00 Ts debe ser mayor o igual a Td Ts=5.6 - Td=6.1 2023-11-18 15:44:00
1 2019-08-30 13:00:00 Ts debe ser mayor o igual a Td Ts=7.2 - Td=7.4 2023-11-18 15:44:00
1 2019-08-31 12:00:00 Ts debe ser mayor o igual a Td Ts=0.7 - Td=3.3 2023-11-18 15:44:00
1 2019-09-01 12:00:00 Ts debe ser mayor o igual a Td Ts=1.7 - Td=2.9 2023-11-18 15:44:00
1 2019-10-01 13:00:00 Ts debe ser mayor o igual a Td Ts=6.7 - Td=6.8 2023-11-08 08:50:00
1 2019-10-01 14:00:00 Ts debe ser mayor o igual a Td Ts=7.0 - Td=7.6 2023-11-08 08:50:00
1 2019-10-01 15:00:00 Ts debe ser mayor o igual a Td Ts=8.3 - Td=9.0 2023-11-08 08:50:00
1 2019-10-02 08:00:00 Ts debe ser mayor o igual a Td Ts=3.1 - Td=4.6 2023-11-08 08:50:00
1 2019-10-03 11:00:00 Ts debe ser mayor o igual a Td Ts=2.4 - Td=4.0 2023-11-08 08:50:00
1 2019-10-03 12:00:00 Ts debe ser mayor o igual a Td Ts=4.5 - Td=5.4 2023-11-08 08:50:00
1 2019-10-04 11:00:00 Ts debe ser mayor o igual a Td Ts=1.3 - Td=2.2 2023-11-08 08:50:00
1 2019-10-04 12:00:00 Ts debe ser mayor o igual a Td Ts=2.9 - Td=4.5 2023-11-08 08:50:00
1 2019-10-05 11:00:00 Ts debe ser mayor o igual a Td Ts=1.5 - Td=1.8 2023-11-08 08:50:00
1 2019-10-06 11:00:00 Ts debe ser mayor o igual a Td Ts=2.9 - Td=3.9 2023-11-08 08:50:00
1 2019-10-07 11:00:00 Ts debe ser mayor o igual a Td Ts=7.6 - Td=8.6 2023-11-08 08:50:00
1 2019-10-07 12:00:00 Ts debe ser mayor o igual a Td Ts=9.5 - Td=9.9 2023-11-08 08:50:00
1 2019-10-08 11:00:00 Ts debe ser mayor o igual a Td Ts=5.0 - Td=6.1 2023-11-08 08:50:00
1 2019-10-08 12:00:00 Ts debe ser mayor o igual a Td Ts=6.6 - Td=9.2 2023-11-08 08:50:00
1 2019-10-10 11:00:00 Ts debe ser mayor o igual a Td Ts=9.1 - Td=9.3 2023-11-08 08:50:00
1 2019-10-11 12:00:00 Ts debe ser mayor o igual a Td Ts=11.6 - Td=12.2 2023-11-08 08:50:00
1 2019-10-12 11:00:00 Ts debe ser mayor o igual a Td Ts=9.0 - Td=9.9 2023-11-08 08:50:00
1 2019-10-12 12:00:00 Ts debe ser mayor o igual a Td Ts=10.2 - Td=10.8 2023-11-08 08:50:00
1 2019-10-13 11:00:00 Ts debe ser mayor o igual a Td Ts=9.7 - Td=10.7 2023-11-08 08:50:00
1 2019-10-13 12:00:00 Ts debe ser mayor o igual a Td Ts=11.6 - Td=12.2 2023-11-08 08:50:00
1 2019-10-15 11:00:00 Ts debe ser mayor o igual a Td Ts=3.8 - Td=9.6 2023-11-08 08:50:00
1 2019-10-15 12:00:00 Ts debe ser mayor o igual a Td Ts=9.9 - Td=11.0 2023-11-08 08:50:00
1 2019-10-16 11:00:00 Ts debe ser mayor o igual a Td Ts=8.0 - Td=9.2 2023-11-08 08:50:00
1 2019-10-16 12:00:00 Ts debe ser mayor o igual a Td Ts=9.9 - Td=10.4 2023-11-08 08:50:00
1 2019-10-18 11:00:00 Ts debe ser mayor o igual a Td Ts=5.2 - Td=7.3 2023-11-08 08:50:00
1 2019-10-19 11:00:00 Ts debe ser mayor o igual a Td Ts=7.1 - Td=8.8 2023-11-08 08:50:00
1 2019-10-21 11:00:00 Ts debe ser mayor o igual a Td Ts=4.1 - Td=8.5 2023-11-08 08:50:00
1 2019-10-22 11:00:00 Ts debe ser mayor o igual a Td Ts=2.6 - Td=7.6 2023-11-08 08:50:00
1 2019-10-23 11:00:00 Ts debe ser mayor o igual a Td Ts=3.7 - Td=7.6 2023-11-08 08:50:00
1 2019-10-25 10:00:00 Ts debe ser mayor o igual a Td Ts=4.8 - Td=5.4 2023-11-08 08:50:00
1 2019-10-25 11:00:00 Ts debe ser mayor o igual a Td Ts=6.1 - Td=10.2 2023-11-08 08:50:00
1 2019-10-29 09:00:00 Ts debe ser mayor o igual a Td Ts=1.5 - Td=1.8 2023-11-08 08:50:00
1 2019-10-29 11:00:00 Ts debe ser mayor o igual a Td Ts=2.9 - Td=5.0 2023-11-08 08:50:00
1 2019-10-30 11:00:00 Ts debe ser mayor o igual a Td Ts=2.5 - Td=5.4 2023-11-08 08:50:00
1 2019-10-31 10:00:00 Ts debe ser mayor o igual a Td Ts=5.1 - Td=5.4 2023-11-08 08:50:00
1 2019-10-31 11:00:00 Ts debe ser mayor o igual a Td Ts=6.4 - Td=8.7 2023-11-08 08:50:00
1 2019-11-01 11:00:00 Ts debe ser mayor o igual a Td Ts=4.7 - Td=7.6 2023-11-08 08:50:00
1 2019-11-02 11:00:00 Ts debe ser mayor o igual a Td Ts=3.6 - Td=7.8 2023-11-08 08:50:00
1 2019-11-02 12:00:00 Ts debe ser mayor o igual a Td Ts=8.3 - Td=9.6 2023-11-08 08:50:00
1 2019-11-03 11:00:00 Ts debe ser mayor o igual a Td Ts=4.6 - Td=8.4 2023-11-08 08:50:00
1 2019-11-04 09:00:00 Ts debe ser mayor o igual a Td Ts=6.5 - Td=7.2 2023-11-08 08:50:00
1 2019-11-05 11:00:00 Ts debe ser mayor o igual a Td Ts=4.0 - Td=9.9 2023-11-08 08:51:00
1 2019-11-06 11:00:00 Ts debe ser mayor o igual a Td Ts=6.3 - Td=6.8 2023-11-08 08:51:00
1 2019-11-07 11:00:00 Ts debe ser mayor o igual a Td Ts=5.4 - Td=8.5 2023-11-08 08:51:00
1 2019-11-09 11:00:00 Ts debe ser mayor o igual a Td Ts=6.6 - Td=10.4 2023-11-08 08:51:00
1 2019-11-10 11:00:00 Ts debe ser mayor o igual a Td Ts=6.3 - Td=7.6 2023-11-08 08:51:00
1 2019-11-11 11:00:00 Ts debe ser mayor o igual a Td Ts=10.5 - Td=12.6 2023-11-08 08:51:00
1 2019-11-12 10:00:00 Ts debe ser mayor o igual a Td Ts=9.5 - Td=10.4 2023-11-08 08:51:00
1 2019-11-12 11:00:00 Ts debe ser mayor o igual a Td Ts=11.0 - Td=13.8 2023-11-08 08:51:00
1 2019-11-13 10:00:00 Ts debe ser mayor o igual a Td Ts=10.6 - Td=10.8 2023-11-08 08:51:00
1 2019-11-13 11:00:00 Ts debe ser mayor o igual a Td Ts=11.4 - Td=13.4 2023-11-08 08:51:00
1 2019-11-15 11:00:00 Ts debe ser mayor o igual a Td Ts=9.8 - Td=11.1 2023-11-08 08:51:00
1 2019-11-16 11:00:00 Ts debe ser mayor o igual a Td Ts=14.3 - Td=15.8 2023-11-08 08:51:00
1 2019-11-17 11:00:00 Ts debe ser mayor o igual a Td Ts=8.9 - Td=9.2 2023-11-08 08:51:00
1 2019-11-18 11:00:00 Ts debe ser mayor o igual a Td Ts=9.2 - Td=10.3 2023-11-08 08:51:00
1 2019-11-19 11:00:00 Ts debe ser mayor o igual a Td Ts=8.9 - Td=9.5 2023-11-08 08:51:00
1 2019-11-20 11:00:00 Ts debe ser mayor o igual a Td Ts=9.6 - Td=10.5 2023-11-08 08:51:00
1 2019-11-22 10:00:00 Ts debe ser mayor o igual a Td Ts=9.3 - Td=11.1 2023-11-08 08:51:00
1 2019-11-22 11:00:00 Ts debe ser mayor o igual a Td Ts=11.7 - Td=13.2 2023-11-08 08:51:00
1 2019-11-23 11:00:00 Ts debe ser mayor o igual a Td Ts=10.1 - Td=13.4 2023-11-08 08:51:00
1 2019-11-26 10:00:00 Ts debe ser mayor o igual a Td Ts=2.7 - Td=4.3 2023-11-08 08:51:00
1 2019-11-26 11:00:00 Ts debe ser mayor o igual a Td Ts=5.3 - Td=5.5 2023-11-08 08:51:00
1 2019-11-27 10:00:00 Ts debe ser mayor o igual a Td Ts=3.9 - Td=4.1 2023-11-08 08:51:00
1 2019-11-28 10:00:00 Ts debe ser mayor o igual a Td Ts=5.9 - Td=7.5 2023-11-08 08:51:00
1 2019-11-30 10:00:00 Ts debe ser mayor o igual a Td Ts=6.0 - Td=8.0 2023-11-08 08:51:00
1 2019-11-30 11:00:00 Ts debe ser mayor o igual a Td Ts=8.8 - Td=9.1 2023-11-08 08:51:00
1 2019-12-01 10:00:00 Ts debe ser mayor o igual a Td Ts=7.2 - Td=8.3 2023-11-08 08:51:00
1 2019-12-02 10:00:00 Ts debe ser mayor o igual a Td Ts=8.8 - Td=10.3 2023-11-08 08:51:00
1 2019-12-02 11:00:00 Ts debe ser mayor o igual a Td Ts=11.1 - Td=11.8 2023-11-08 08:51:00
1 2019-12-03 10:00:00 Ts debe ser mayor o igual a Td Ts=8.8 - Td=10.2 2023-11-08 08:51:00
1 2019-12-03 11:00:00 Ts debe ser mayor o igual a Td Ts=11.0 - Td=11.8 2023-11-08 08:51:00
1 2019-12-04 10:00:00 Ts debe ser mayor o igual a Td Ts=6.3 - Td=6.9 2023-11-08 08:51:00
1 2019-12-07 10:00:00 Ts debe ser mayor o igual a Td Ts=8.5 - Td=8.6 2023-11-08 08:51:00
1 2019-12-07 11:00:00 Ts debe ser mayor o igual a Td Ts=9.8 - Td=10.0 2023-11-08 08:51:00
1 2019-12-08 10:00:00 Ts debe ser mayor o igual a Td Ts=7.9 - Td=8.5 2023-11-08 08:51:00
1 2019-12-08 11:00:00 Ts debe ser mayor o igual a Td Ts=9.4 - Td=11.2 2023-11-08 08:51:00
1 2019-12-09 10:00:00 Ts debe ser mayor o igual a Td Ts=9.4 - Td=10.0 2023-11-08 08:51:00
1 2019-12-09 11:00:00 Ts debe ser mayor o igual a Td Ts=11.0 - Td=12.4 2023-11-08 08:51:00
1 2019-12-10 11:00:00 Ts debe ser mayor o igual a Td Ts=10.2 - Td=12.1 2023-11-08 08:51:00
1 2019-12-11 10:00:00 Ts debe ser mayor o igual a Td Ts=9.7 - Td=10.2 2023-11-08 08:51:00
1 2019-12-11 11:00:00 Ts debe ser mayor o igual a Td Ts=11.3 - Td=11.8 2023-11-08 08:51:00
1 2019-12-12 10:00:00 Ts debe ser mayor o igual a Td Ts=6.7 - Td=6.8 2023-11-08 08:51:00
1 2019-12-15 10:00:00 Ts debe ser mayor o igual a Td Ts=7.6 - Td=7.8 2023-11-08 08:51:00
1 2019-12-15 11:00:00 Ts debe ser mayor o igual a Td Ts=8.6 - Td=9.4 2023-11-08 08:51:00
1 2019-12-16 11:00:00 Ts debe ser mayor o igual a Td Ts=8.1 - Td=9.1 2023-11-08 08:51:00
1 2019-12-17 11:00:00 Ts debe ser mayor o igual a Td Ts=8.6 - Td=9.3 2023-11-08 08:51:00
Errores del Nivel 953
Informe generado el 05-03-2024 11:44
Requerimiento: RE6001